<?xml version="1.0" encoding="utf-8"?>
<gpx xmlns:xsi="http://www.w3.org/2001/XMLSchema-instance" xmlns:xsd="http://www.w3.org/2001/XMLSchema" version="1.1" creator="Shapelink.com" xmlns="http://www.topografix.com/GPX/1/1" xmlns:gpxtpx="http://www.garmin.com/xmlschemas/TrackPointExtension/v1">
  <metadata>
    <name>Längdskidåkning - Klassisk 11.09 km, 2013-04-01</name>
    <desc></desc>
    <author><name>Alexander Engvall</name></author> 
    <time>2013-04-01T11:27:02Z</time>
  </metadata>
  <trk>
    <name>Längdskidåkning - Klassisk 11.09 km, 2013-04-01</name>
    <trkseg>
      <trkpt lat="62.8080735" lon="14.4412495">
        <ele>285.4</ele>
        <time>2013-04-01T11:27:02Z</time>
      </trkpt>
      <trkpt lat="62.807886" lon="14.4413132">
        <ele>285.4</ele>
        <time>2013-04-01T11:27:07Z</time>
      </trkpt>
      <trkpt lat="62.807681" lon="14.4413748">
        <ele>284.8</ele>
        <time>2013-04-01T11:27:12Z</time>
      </trkpt>
      <trkpt lat="62.8074719" lon="14.4414392">
        <ele>285.4</ele>
        <time>2013-04-01T11:27:17Z</time>
      </trkpt>
      <trkpt lat="62.8073897" lon="14.4414701">
        <ele>285.4</ele>
        <time>2013-04-01T11:27:19Z</time>
      </trkpt>
      <trkpt lat="62.8072722" lon="14.4414931">
        <ele>285.6</ele>
        <time>2013-04-01T11:27:22Z</time>
      </trkpt>
      <trkpt lat="62.8070686" lon="14.4415758">
        <ele>286</ele>
        <time>2013-04-01T11:27:27Z</time>
      </trkpt>
      <trkpt lat="62.8069401" lon="14.4416031">
        <ele>286.6</ele>
        <time>2013-04-01T11:27:30Z</time>
      </trkpt>
      <trkpt lat="62.8068531" lon="14.4416193">
        <ele>285.8</ele>
        <time>2013-04-01T11:27:32Z</time>
      </trkpt>
      <trkpt lat="62.8066503" lon="14.4416731">
        <ele>285.4</ele>
        <time>2013-04-01T11:27:37Z</time>
      </trkpt>
      <trkpt lat="62.8064532" lon="14.4417175">
        <ele>285.2</ele>
        <time>2013-04-01T11:27:42Z</time>
      </trkpt>
      <trkpt lat="62.8063138" lon="14.4417333">
        <ele>285.4</ele>
        <time>2013-04-01T11:27:46Z</time>
      </trkpt>
      <trkpt lat="62.806245" lon="14.4417551">
        <ele>285.4</ele>
        <time>2013-04-01T11:27:48Z</time>
      </trkpt>
      <trkpt lat="62.8060399" lon="14.4418172">
        <ele>285.8</ele>
        <time>2013-04-01T11:27:54Z</time>
      </trkpt>
      <trkpt lat="62.8058588" lon="14.4418761">
        <ele>285</ele>
        <time>2013-04-01T11:27:59Z</time>
      </trkpt>
      <trkpt lat="62.805677" lon="14.4419409">
        <ele>285.8</ele>
        <time>2013-04-01T11:28:05Z</time>
      </trkpt>
      <trkpt lat="62.8054646" lon="14.4420258">
        <ele>287</ele>
        <time>2013-04-01T11:28:11Z</time>
      </trkpt>
      <trkpt lat="62.8052596" lon="14.4420539">
        <ele>285.6</ele>
        <time>2013-04-01T11:28:17Z</time>
      </trkpt>
      <trkpt lat="62.8050424" lon="14.4421283">
        <ele>285.4</ele>
        <time>2013-04-01T11:28:22Z</time>
      </trkpt>
      <trkpt lat="62.8048136" lon="14.4421891">
        <ele>283.6</ele>
        <time>2013-04-01T11:28:27Z</time>
      </trkpt>
      <trkpt lat="62.8046079" lon="14.4422342">
        <ele>282.2</ele>
        <time>2013-04-01T11:28:31Z</time>
      </trkpt>
      <trkpt lat="62.8045583" lon="14.4422446">
        <ele>281.6</ele>
        <time>2013-04-01T11:28:32Z</time>
      </trkpt>
      <trkpt lat="62.8044045" lon="14.4422947">
        <ele>280.2</ele>
        <time>2013-04-01T11:28:35Z</time>
      </trkpt>
      <trkpt lat="62.804192" lon="14.442348">
        <ele>279.4</ele>
        <time>2013-04-01T11:28:39Z</time>
      </trkpt>
      <trkpt lat="62.8041418" lon="14.4423544">
        <ele>279</ele>
        <time>2013-04-01T11:28:40Z</time>
      </trkpt>
      <trkpt lat="62.8040334" lon="14.4423689">
        <ele>279.2</ele>
        <time>2013-04-01T11:28:42Z</time>
      </trkpt>
      <trkpt lat="62.80398" lon="14.4423783">
        <ele>278.8</ele>
        <time>2013-04-01T11:28:43Z</time>
      </trkpt>
      <trkpt lat="62.8038259" lon="14.4423984">
        <ele>279.4</ele>
        <time>2013-04-01T11:28:46Z</time>
      </trkpt>
      <trkpt lat="62.8037782" lon="14.4424021">
        <ele>279.2</ele>
        <time>2013-04-01T11:28:47Z</time>
      </trkpt>
      <trkpt lat="62.8037315" lon="14.4424094">
        <ele>279</ele>
        <time>2013-04-01T11:28:48Z</time>
      </trkpt>
      <trkpt lat="62.80357" lon="14.4424461">
        <ele>279.2</ele>
        <time>2013-04-01T11:28:51Z</time>
      </trkpt>
      <trkpt lat="62.8034155" lon="14.44247">
        <ele>278.8</ele>
        <time>2013-04-01T11:28:54Z</time>
      </trkpt>
      <trkpt lat="62.8033672" lon="14.4424823">
        <ele>279.2</ele>
        <time>2013-04-01T11:28:55Z</time>
      </trkpt>
      <trkpt lat="62.803271" lon="14.4424906">
        <ele>279.2</ele>
        <time>2013-04-01T11:28:57Z</time>
      </trkpt>
      <trkpt lat="62.8031698" lon="14.4424847">
        <ele>278.8</ele>
        <time>2013-04-01T11:28:59Z</time>
      </trkpt>
      <trkpt lat="62.8030208" lon="14.4425101">
        <ele>279.2</ele>
        <time>2013-04-01T11:29:02Z</time>
      </trkpt>
      <trkpt lat="62.8029721" lon="14.4425257">
        <ele>279.4</ele>
        <time>2013-04-01T11:29:03Z</time>
      </trkpt>
      <trkpt lat="62.8029255" lon="14.4425347">
        <ele>279.4</ele>
        <time>2013-04-01T11:29:04Z</time>
      </trkpt>
      <trkpt lat="62.8027985" lon="14.4425343">
        <ele>278.8</ele>
        <time>2013-04-01T11:29:07Z</time>
      </trkpt>
      <trkpt lat="62.802751" lon="14.4425398">
        <ele>279</ele>
        <time>2013-04-01T11:29:08Z</time>
      </trkpt>
      <trkpt lat="62.8026593" lon="14.442544">
        <ele>279.2</ele>
        <time>2013-04-01T11:29:10Z</time>
      </trkpt>
      <trkpt lat="62.8025666" lon="14.4425607">
        <ele>279.4</ele>
        <time>2013-04-01T11:29:12Z</time>
      </trkpt>
      <trkpt lat="62.8023728" lon="14.442593">
        <ele>280.6</ele>
        <time>2013-04-01T11:29:16Z</time>
      </trkpt>
      <trkpt lat="62.8022061" lon="14.4425703">
        <ele>280</ele>
        <time>2013-04-01T11:29:20Z</time>
      </trkpt>
      <trkpt lat="62.8021608" lon="14.4425583">
        <ele>280</ele>
        <time>2013-04-01T11:29:21Z</time>
      </trkpt>
      <trkpt lat="62.8021174" lon="14.4425417">
        <ele>279.8</ele>
        <time>2013-04-01T11:29:22Z</time>
      </trkpt>
      <trkpt lat="62.8019776" lon="14.4424999">
        <ele>280.4</ele>
        <time>2013-04-01T11:29:25Z</time>
      </trkpt>
      <trkpt lat="62.8017916" lon="14.4424497">
        <ele>281.4</ele>
        <time>2013-04-01T11:29:29Z</time>
      </trkpt>
      <trkpt lat="62.8017121" lon="14.4424025">
        <ele>281.4</ele>
        <time>2013-04-01T11:29:31Z</time>
      </trkpt>
      <trkpt lat="62.8015905" lon="14.4423462">
        <ele>280</ele>
        <time>2013-04-01T11:29:34Z</time>
      </trkpt>
      <trkpt lat="62.8014133" lon="14.442249">
        <ele>280.2</ele>
        <time>2013-04-01T11:29:38Z</time>
      </trkpt>
      <trkpt lat="62.8012306" lon="14.4421581">
        <ele>280.6</ele>
        <time>2013-04-01T11:29:42Z</time>
      </trkpt>
      <trkpt lat="62.8011793" lon="14.4421392">
        <ele>280.6</ele>
        <time>2013-04-01T11:29:43Z</time>
      </trkpt>
      <trkpt lat="62.8010416" lon="14.4420853">
        <ele>281</ele>
        <time>2013-04-01T11:29:46Z</time>
      </trkpt>
      <trkpt lat="62.8009564" lon="14.4420553">
        <ele>281.2</ele>
        <time>2013-04-01T11:29:48Z</time>
      </trkpt>
      <trkpt lat="62.8008623" lon="14.4420229">
        <ele>281.4</ele>
        <time>2013-04-01T11:29:50Z</time>
      </trkpt>
      <trkpt lat="62.8006872" lon="14.4419597">
        <ele>280.4</ele>
        <time>2013-04-01T11:29:54Z</time>
      </trkpt>
      <trkpt lat="62.8006459" lon="14.441952">
        <ele>280.2</ele>
        <time>2013-04-01T11:29:55Z</time>
      </trkpt>
      <trkpt lat="62.8004266" lon="14.4419162">
        <ele>281</ele>
        <time>2013-04-01T11:30:00Z</time>
      </trkpt>
      <trkpt lat="62.8002039" lon="14.4418808">
        <ele>281</ele>
        <time>2013-04-01T11:30:05Z</time>
      </trkpt>
      <trkpt lat="62.8001081" lon="14.4418659">
        <ele>281.4</ele>
        <time>2013-04-01T11:30:07Z</time>
      </trkpt>
      <trkpt lat="62.8000121" lon="14.4418535">
        <ele>281.4</ele>
        <time>2013-04-01T11:30:09Z</time>
      </trkpt>
      <trkpt lat="62.7998004" lon="14.4418156">
        <ele>282.8</ele>
        <time>2013-04-01T11:30:13Z</time>
      </trkpt>
      <trkpt lat="62.7995945" lon="14.4417685">
        <ele>282.8</ele>
        <time>2013-04-01T11:30:17Z</time>
      </trkpt>
      <trkpt lat="62.7994927" lon="14.4417406">
        <ele>282.4</ele>
        <time>2013-04-01T11:30:19Z</time>
      </trkpt>
      <trkpt lat="62.7993912" lon="14.4417167">
        <ele>282.4</ele>
        <time>2013-04-01T11:30:21Z</time>
      </trkpt>
      <trkpt lat="62.7991962" lon="14.4416787">
        <ele>280.2</ele>
        <time>2013-04-01T11:30:25Z</time>
      </trkpt>
      <trkpt lat="62.7990887" lon="14.4416727">
        <ele>280</ele>
        <time>2013-04-01T11:30:27Z</time>
      </trkpt>
      <trkpt lat="62.7989898" lon="14.4416706">
        <ele>279.8</ele>
        <time>2013-04-01T11:30:29Z</time>
      </trkpt>
      <trkpt lat="62.7987698" lon="14.4416485">
        <ele>281.4</ele>
        <time>2013-04-01T11:30:33Z</time>
      </trkpt>
      <trkpt lat="62.798584" lon="14.4415876">
        <ele>281.2</ele>
        <time>2013-04-01T11:30:37Z</time>
      </trkpt>
      <trkpt lat="62.7984919" lon="14.4415762">
        <ele>281</ele>
        <time>2013-04-01T11:30:39Z</time>
      </trkpt>
      <trkpt lat="62.7984007" lon="14.44154">
        <ele>281.4</ele>
        <time>2013-04-01T11:30:41Z</time>
      </trkpt>
      <trkpt lat="62.7983017" lon="14.4415037">
        <ele>281.2</ele>
        <time>2013-04-01T11:30:43Z</time>
      </trkpt>
      <trkpt lat="62.7982054" lon="14.4414489">
        <ele>280.8</ele>
        <time>2013-04-01T11:30:45Z</time>
      </trkpt>
      <trkpt lat="62.7981044" lon="14.441396">
        <ele>280.6</ele>
        <time>2013-04-01T11:30:47Z</time>
      </trkpt>
      <trkpt lat="62.7980116" lon="14.4413343">
        <ele>279.8</ele>
        <time>2013-04-01T11:30:49Z</time>
      </trkpt>
      <trkpt lat="62.7979609" lon="14.4412981">
        <ele>280</ele>
        <time>2013-04-01T11:30:50Z</time>
      </trkpt>
      <trkpt lat="62.7978096" lon="14.4412097">
        <ele>281</ele>
        <time>2013-04-01T11:30:53Z</time>
      </trkpt>
      <trkpt lat="62.7976045" lon="14.4411066">
        <ele>281.4</ele>
        <time>2013-04-01T11:30:57Z</time>
      </trkpt>
      <trkpt lat="62.7973834" lon="14.4410133">
        <ele>282.6</ele>
        <time>2013-04-01T11:31:01Z</time>
      </trkpt>
      <trkpt lat="62.7971617" lon="14.4409287">
        <ele>283.4</ele>
        <time>2013-04-01T11:31:05Z</time>
      </trkpt>
      <trkpt lat="62.7969633" lon="14.4408628">
        <ele>285</ele>
        <time>2013-04-01T11:31:09Z</time>
      </trkpt>
      <trkpt lat="62.7967747" lon="14.440773">
        <ele>286</ele>
        <time>2013-04-01T11:31:13Z</time>
      </trkpt>
      <trkpt lat="62.7965913" lon="14.4406863">
        <ele>287.2</ele>
        <time>2013-04-01T11:31:17Z</time>
      </trkpt>
      <trkpt lat="62.7963746" lon="14.4406039">
        <ele>288.2</ele>
        <time>2013-04-01T11:31:22Z</time>
      </trkpt>
      <trkpt lat="62.7961971" lon="14.4405331">
        <ele>288.6</ele>
        <time>2013-04-01T11:31:26Z</time>
      </trkpt>
      <trkpt lat="62.7959973" lon="14.4404201">
        <ele>287.8</ele>
        <time>2013-04-01T11:31:31Z</time>
      </trkpt>
      <trkpt lat="62.7957931" lon="14.4402586">
        <ele>287.6</ele>
        <time>2013-04-01T11:31:36Z</time>
      </trkpt>
      <trkpt lat="62.7957501" lon="14.4402236">
        <ele>287.6</ele>
        <time>2013-04-01T11:31:37Z</time>
      </trkpt>
      <trkpt lat="62.7955817" lon="14.4400995">
        <ele>289.2</ele>
        <time>2013-04-01T11:31:41Z</time>
      </trkpt>
      <trkpt lat="62.7954879" lon="14.4400249">
        <ele>291.4</ele>
        <time>2013-04-01T11:31:43Z</time>
      </trkpt>
      <trkpt lat="62.7954007" lon="14.4399439">
        <ele>292.8</ele>
        <time>2013-04-01T11:31:45Z</time>
      </trkpt>
      <trkpt lat="62.7952658" lon="14.4396835">
        <ele>288.8</ele>
        <time>2013-04-01T11:31:50Z</time>
      </trkpt>
      <trkpt lat="62.7952377" lon="14.4396526">
        <ele>288</ele>
        <time>2013-04-01T11:31:51Z</time>
      </trkpt>
      <trkpt lat="62.7950663" lon="14.4394679">
        <ele>285</ele>
        <time>2013-04-01T11:31:56Z</time>
      </trkpt>
      <trkpt lat="62.7950068" lon="14.4393938">
        <ele>283.6</ele>
        <time>2013-04-01T11:31:58Z</time>
      </trkpt>
      <trkpt lat="62.7948808" lon="14.4392685">
        <ele>284.4</ele>
        <time>2013-04-01T11:32:02Z</time>
      </trkpt>
      <trkpt lat="62.7946828" lon="14.4390845">
        <ele>286.8</ele>
        <time>2013-04-01T11:32:08Z</time>
      </trkpt>
      <trkpt lat="62.7945037" lon="14.4389644">
        <ele>287.4</ele>
        <time>2013-04-01T11:32:13Z</time>
      </trkpt>
      <trkpt lat="62.7943021" lon="14.4388843">
        <ele>289.8</ele>
        <time>2013-04-01T11:32:18Z</time>
      </trkpt>
      <trkpt lat="62.7940981" lon="14.4388121">
        <ele>290.4</ele>
        <time>2013-04-01T11:32:23Z</time>
      </trkpt>
      <trkpt lat="62.7938846" lon="14.4387492">
        <ele>292.4</ele>
        <time>2013-04-01T11:32:28Z</time>
      </trkpt>
      <trkpt lat="62.7937153" lon="14.4386781">
        <ele>292.6</ele>
        <time>2013-04-01T11:32:32Z</time>
      </trkpt>
      <trkpt lat="62.7936742" lon="14.4386719">
        <ele>292.6</ele>
        <time>2013-04-01T11:32:33Z</time>
      </trkpt>
      <trkpt lat="62.7936322" lon="14.4386599">
        <ele>292.6</ele>
        <time>2013-04-01T11:32:34Z</time>
      </trkpt>
      <trkpt lat="62.7934559" lon="14.4385997">
        <ele>292.2</ele>
        <time>2013-04-01T11:32:38Z</time>
      </trkpt>
      <trkpt lat="62.7932699" lon="14.4385448">
        <ele>292.4</ele>
        <time>2013-04-01T11:32:42Z</time>
      </trkpt>
      <trkpt lat="62.793073" lon="14.4385072">
        <ele>292.6</ele>
        <time>2013-04-01T11:32:46Z</time>
      </trkpt>
      <trkpt lat="62.7928654" lon="14.4385049">
        <ele>293.2</ele>
        <time>2013-04-01T11:32:50Z</time>
      </trkpt>
      <trkpt lat="62.7926524" lon="14.4385211">
        <ele>293.8</ele>
        <time>2013-04-01T11:32:54Z</time>
      </trkpt>
      <trkpt lat="62.792601" lon="14.4385183">
        <ele>294.2</ele>
        <time>2013-04-01T11:32:55Z</time>
      </trkpt>
      <trkpt lat="62.7924426" lon="14.4385367">
        <ele>295</ele>
        <time>2013-04-01T11:32:58Z</time>
      </trkpt>
      <trkpt lat="62.7922364" lon="14.4385613">
        <ele>296</ele>
        <time>2013-04-01T11:33:02Z</time>
      </trkpt>
      <trkpt lat="62.7920447" lon="14.4386002">
        <ele>296.2</ele>
        <time>2013-04-01T11:33:06Z</time>
      </trkpt>
      <trkpt lat="62.7918442" lon="14.4386292">
        <ele>296.6</ele>
        <time>2013-04-01T11:33:10Z</time>
      </trkpt>
      <trkpt lat="62.7916338" lon="14.4386699">
        <ele>296.2</ele>
        <time>2013-04-01T11:33:14Z</time>
      </trkpt>
      <trkpt lat="62.7914238" lon="14.4387008">
        <ele>296.2</ele>
        <time>2013-04-01T11:33:18Z</time>
      </trkpt>
      <trkpt lat="62.7912699" lon="14.43872">
        <ele>294.8</ele>
        <time>2013-04-01T11:33:21Z</time>
      </trkpt>
      <trkpt lat="62.7912206" lon="14.438719">
        <ele>294.4</ele>
        <time>2013-04-01T11:33:22Z</time>
      </trkpt>
      <trkpt lat="62.791075" lon="14.4387278">
        <ele>294</ele>
        <time>2013-04-01T11:33:25Z</time>
      </trkpt>
      <trkpt lat="62.7910263" lon="14.4387221">
        <ele>294</ele>
        <time>2013-04-01T11:33:26Z</time>
      </trkpt>
      <trkpt lat="62.7909802" lon="14.4387247">
        <ele>293.6</ele>
        <time>2013-04-01T11:33:27Z</time>
      </trkpt>
      <trkpt lat="62.790844" lon="14.4387351">
        <ele>294</ele>
        <time>2013-04-01T11:33:30Z</time>
      </trkpt>
      <trkpt lat="62.79064" lon="14.4387134">
        <ele>293.2</ele>
        <time>2013-04-01T11:33:35Z</time>
      </trkpt>
      <trkpt lat="62.7904607" lon="14.4387179">
        <ele>294.8</ele>
        <time>2013-04-01T11:33:39Z</time>
      </trkpt>
      <trkpt lat="62.790283" lon="14.4387464">
        <ele>295.4</ele>
        <time>2013-04-01T11:33:43Z</time>
      </trkpt>
      <trkpt lat="62.7902348" lon="14.4387553">
        <ele>296</ele>
        <time>2013-04-01T11:33:44Z</time>
      </trkpt>
      <trkpt lat="62.7900431" lon="14.4387738">
        <ele>296.8</ele>
        <time>2013-04-01T11:33:48Z</time>
      </trkpt>
      <trkpt lat="62.7899927" lon="14.4387825">
        <ele>297.2</ele>
        <time>2013-04-01T11:33:49Z</time>
      </trkpt>
      <trkpt lat="62.789851" lon="14.4388277">
        <ele>298.2</ele>
        <time>2013-04-01T11:33:52Z</time>
      </trkpt>
      <trkpt lat="62.7896653" lon="14.4388903">
        <ele>298.4</ele>
        <time>2013-04-01T11:33:56Z</time>
      </trkpt>
      <trkpt lat="62.7894718" lon="14.4389457">
        <ele>298</ele>
        <time>2013-04-01T11:34:00Z</time>
      </trkpt>
      <trkpt lat="62.7892682" lon="14.4389876">
        <ele>298.6</ele>
        <time>2013-04-01T11:34:04Z</time>
      </trkpt>
      <trkpt lat="62.7891195" lon="14.4390224">
        <ele>298.4</ele>
        <time>2013-04-01T11:34:07Z</time>
      </trkpt>
      <trkpt lat="62.7890759" lon="14.4390158">
        <ele>298</ele>
        <time>2013-04-01T11:34:08Z</time>
      </trkpt>
      <trkpt lat="62.7889496" lon="14.439033">
        <ele>297.2</ele>
        <time>2013-04-01T11:34:11Z</time>
      </trkpt>
      <trkpt lat="62.7888563" lon="14.4390488">
        <ele>297.4</ele>
        <time>2013-04-01T11:34:13Z</time>
      </trkpt>
      <trkpt lat="62.7886565" lon="14.4390889">
        <ele>296.6</ele>
        <time>2013-04-01T11:34:17Z</time>
      </trkpt>
      <trkpt lat="62.7885089" lon="14.4390982">
        <ele>296.2</ele>
        <time>2013-04-01T11:34:20Z</time>
      </trkpt>
      <trkpt lat="62.7884611" lon="14.4391054">
        <ele>296</ele>
        <time>2013-04-01T11:34:21Z</time>
      </trkpt>
      <trkpt lat="62.7882514" lon="14.4391516">
        <ele>295.2</ele>
        <time>2013-04-01T11:34:25Z</time>
      </trkpt>
      <trkpt lat="62.7880985" lon="14.4391793">
        <ele>295.8</ele>
        <time>2013-04-01T11:34:28Z</time>
      </trkpt>
      <trkpt lat="62.7880482" lon="14.4391851">
        <ele>296.2</ele>
        <time>2013-04-01T11:34:29Z</time>
      </trkpt>
      <trkpt lat="62.7878639" lon="14.4392148">
        <ele>297</ele>
        <time>2013-04-01T11:34:33Z</time>
      </trkpt>
      <trkpt lat="62.7876707" lon="14.4392184">
        <ele>298.2</ele>
        <time>2013-04-01T11:34:37Z</time>
      </trkpt>
      <trkpt lat="62.7875749" lon="14.4392221">
        <ele>298.2</ele>
        <time>2013-04-01T11:34:39Z</time>
      </trkpt>
      <trkpt lat="62.7874826" lon="14.4392167">
        <ele>297.4</ele>
        <time>2013-04-01T11:34:41Z</time>
      </trkpt>
      <trkpt lat="62.7872962" lon="14.4392086">
        <ele>296.4</ele>
        <time>2013-04-01T11:34:45Z</time>
      </trkpt>
      <trkpt lat="62.7870957" lon="14.4392002">
        <ele>297.2</ele>
        <time>2013-04-01T11:34:49Z</time>
      </trkpt>
      <trkpt lat="62.7869899" lon="14.4392059">
        <ele>297.2</ele>
        <time>2013-04-01T11:34:51Z</time>
      </trkpt>
      <trkpt lat="62.7868802" lon="14.4392225">
        <ele>297.2</ele>
        <time>2013-04-01T11:34:53Z</time>
      </trkpt>
      <trkpt lat="62.78678" lon="14.439224">
        <ele>296.8</ele>
        <time>2013-04-01T11:34:55Z</time>
      </trkpt>
      <trkpt lat="62.7867297" lon="14.439227">
        <ele>296.8</ele>
        <time>2013-04-01T11:34:56Z</time>
      </trkpt>
      <trkpt lat="62.7866824" lon="14.4392347">
        <ele>296.4</ele>
        <time>2013-04-01T11:34:57Z</time>
      </trkpt>
      <trkpt lat="62.7866308" lon="14.4392312">
        <ele>296.6</ele>
        <time>2013-04-01T11:34:58Z</time>
      </trkpt>
      <trkpt lat="62.7864793" lon="14.4392168">
        <ele>295.4</ele>
        <time>2013-04-01T11:35:01Z</time>
      </trkpt>
      <trkpt lat="62.7863288" lon="14.4392023">
        <ele>295</ele>
        <time>2013-04-01T11:35:04Z</time>
      </trkpt>
      <trkpt lat="62.786277" lon="14.4392111">
        <ele>294.8</ele>
        <time>2013-04-01T11:35:05Z</time>
      </trkpt>
      <trkpt lat="62.7860829" lon="14.4392238">
        <ele>295.4</ele>
        <time>2013-04-01T11:35:09Z</time>
      </trkpt>
      <trkpt lat="62.7858795" lon="14.4391969">
        <ele>294.8</ele>
        <time>2013-04-01T11:35:13Z</time>
      </trkpt>
      <trkpt lat="62.7858261" lon="14.4391977">
        <ele>295.2</ele>
        <time>2013-04-01T11:35:14Z</time>
      </trkpt>
      <trkpt lat="62.785672" lon="14.4391873">
        <ele>295</ele>
        <time>2013-04-01T11:35:17Z</time>
      </trkpt>
      <trkpt lat="62.7856209" lon="14.4391887">
        <ele>295</ele>
        <time>2013-04-01T11:35:18Z</time>
      </trkpt>
      <trkpt lat="62.7854795" lon="14.4391322">
        <ele>295</ele>
        <time>2013-04-01T11:35:21Z</time>
      </trkpt>
      <trkpt lat="62.7853919" lon="14.4391322">
        <ele>294.4</ele>
        <time>2013-04-01T11:35:23Z</time>
      </trkpt>
      <trkpt lat="62.785294" lon="14.4391407">
        <ele>294.2</ele>
        <time>2013-04-01T11:35:25Z</time>
      </trkpt>
      <trkpt lat="62.7851465" lon="14.4391479">
        <ele>294.8</ele>
        <time>2013-04-01T11:35:28Z</time>
      </trkpt>
      <trkpt lat="62.7850993" lon="14.4391546">
        <ele>294.4</ele>
        <time>2013-04-01T11:35:29Z</time>
      </trkpt>
      <trkpt lat="62.7849045" lon="14.4391799">
        <ele>294.4</ele>
        <time>2013-04-01T11:35:33Z</time>
      </trkpt>
      <trkpt lat="62.7848532" lon="14.4391836">
        <ele>294.8</ele>
        <time>2013-04-01T11:35:34Z</time>
      </trkpt>
      <trkpt lat="62.7847111" lon="14.4392096">
        <ele>295.2</ele>
        <time>2013-04-01T11:35:37Z</time>
      </trkpt>
      <trkpt lat="62.7845151" lon="14.4392114">
        <ele>295.8</ele>
        <time>2013-04-01T11:35:41Z</time>
      </trkpt>
      <trkpt lat="62.7843828" lon="14.4392411">
        <ele>296.6</ele>
        <time>2013-04-01T11:35:44Z</time>
      </trkpt>
      <trkpt lat="62.7843107" lon="14.4392759">
        <ele>296.2</ele>
        <time>2013-04-01T11:35:46Z</time>
      </trkpt>
      <trkpt lat="62.7841324" lon="14.4393879">
        <ele>298.6</ele>
        <time>2013-04-01T11:35:51Z</time>
      </trkpt>
      <trkpt lat="62.7839574" lon="14.4394515">
        <ele>300.8</ele>
        <time>2013-04-01T11:35:55Z</time>
      </trkpt>
      <trkpt lat="62.7839016" lon="14.4394339">
        <ele>301.2</ele>
        <time>2013-04-01T11:35:56Z</time>
      </trkpt>
      <trkpt lat="62.7837452" lon="14.4393551">
        <ele>301.8</ele>
        <time>2013-04-01T11:35:59Z</time>
      </trkpt>
      <trkpt lat="62.7836949" lon="14.4393252">
        <ele>302</ele>
        <time>2013-04-01T11:36:00Z</time>
      </trkpt>
      <trkpt lat="62.7835484" lon="14.4392557">
        <ele>302.8</ele>
        <time>2013-04-01T11:36:03Z</time>
      </trkpt>
      <trkpt lat="62.7833452" lon="14.4391853">
        <ele>302.8</ele>
        <time>2013-04-01T11:36:07Z</time>
      </trkpt>
      <trkpt lat="62.7832933" lon="14.4391691">
        <ele>303.4</ele>
        <time>2013-04-01T11:36:08Z</time>
      </trkpt>
      <trkpt lat="62.7831531" lon="14.4390967">
        <ele>302.2</ele>
        <time>2013-04-01T11:36:11Z</time>
      </trkpt>
      <trkpt lat="62.7831193" lon="14.4390688">
        <ele>300.4</ele>
        <time>2013-04-01T11:36:12Z</time>
      </trkpt>
      <trkpt lat="62.7830345" lon="14.4390438">
        <ele>299.2</ele>
        <time>2013-04-01T11:36:14Z</time>
      </trkpt>
      <trkpt lat="62.7829359" lon="14.4390185">
        <ele>299.2</ele>
        <time>2013-04-01T11:36:16Z</time>
      </trkpt>
      <trkpt lat="62.7827286" lon="14.4389982">
        <ele>299.4</ele>
        <time>2013-04-01T11:36:20Z</time>
      </trkpt>
      <trkpt lat="62.7826257" lon="14.4389983">
        <ele>300.2</ele>
        <time>2013-04-01T11:36:22Z</time>
      </trkpt>
      <trkpt lat="62.7825325" lon="14.4389997">
        <ele>299.6</ele>
        <time>2013-04-01T11:36:24Z</time>
      </trkpt>
      <trkpt lat="62.7823378" lon="14.4389949">
        <ele>300</ele>
        <time>2013-04-01T11:36:28Z</time>
      </trkpt>
      <trkpt lat="62.782147" lon="14.4389967">
        <ele>299.8</ele>
        <time>2013-04-01T11:36:32Z</time>
      </trkpt>
      <trkpt lat="62.7819611" lon="14.4389977">
        <ele>298.6</ele>
        <time>2013-04-01T11:36:36Z</time>
      </trkpt>
      <trkpt lat="62.7817729" lon="14.4389801">
        <ele>298.4</ele>
        <time>2013-04-01T11:36:40Z</time>
      </trkpt>
      <trkpt lat="62.7815701" lon="14.4389271">
        <ele>297.4</ele>
        <time>2013-04-01T11:36:44Z</time>
      </trkpt>
      <trkpt lat="62.7814717" lon="14.4389133">
        <ele>297.6</ele>
        <time>2013-04-01T11:36:46Z</time>
      </trkpt>
      <trkpt lat="62.7813723" lon="14.4388893">
        <ele>297.6</ele>
        <time>2013-04-01T11:36:48Z</time>
      </trkpt>
      <trkpt lat="62.7812751" lon="14.4388605">
        <ele>298.4</ele>
        <time>2013-04-01T11:36:50Z</time>
      </trkpt>
      <trkpt lat="62.7811959" lon="14.4388357">
        <ele>299</ele>
        <time>2013-04-01T11:36:52Z</time>
      </trkpt>
      <trkpt lat="62.7811603" lon="14.4388319">
        <ele>299.6</ele>
        <time>2013-04-01T11:36:53Z</time>
      </trkpt>
      <trkpt lat="62.7811287" lon="14.4387989">
        <ele>298.8</ele>
        <time>2013-04-01T11:37:02Z</time>
      </trkpt>
      <trkpt lat="62.781152" lon="14.4387875">
        <ele>298.6</ele>
        <time>2013-04-01T11:37:03Z</time>
      </trkpt>
      <trkpt lat="62.7813327" lon="14.438777">
        <ele>296.4</ele>
        <time>2013-04-01T11:37:08Z</time>
      </trkpt>
      <trkpt lat="62.7815421" lon="14.4388148">
        <ele>294.6</ele>
        <time>2013-04-01T11:37:13Z</time>
      </trkpt>
      <trkpt lat="62.7817623" lon="14.4388669">
        <ele>293.4</ele>
        <time>2013-04-01T11:37:18Z</time>
      </trkpt>
      <trkpt lat="62.7819788" lon="14.4388977">
        <ele>291.2</ele>
        <time>2013-04-01T11:37:23Z</time>
      </trkpt>
      <trkpt lat="62.7820705" lon="14.4389131">
        <ele>291.6</ele>
        <time>2013-04-01T11:37:25Z</time>
      </trkpt>
      <trkpt lat="62.7821909" lon="14.4389174">
        <ele>290.2</ele>
        <time>2013-04-01T11:37:28Z</time>
      </trkpt>
      <trkpt lat="62.7823083" lon="14.438941">
        <ele>290</ele>
        <time>2013-04-01T11:37:31Z</time>
      </trkpt>
      <trkpt lat="62.7823916" lon="14.438921">
        <ele>289.6</ele>
        <time>2013-04-01T11:37:33Z</time>
      </trkpt>
      <trkpt lat="62.7825848" lon="14.4389044">
        <ele>290</ele>
        <time>2013-04-01T11:37:38Z</time>
      </trkpt>
      <trkpt lat="62.7827739" lon="14.4389006">
        <ele>289</ele>
        <time>2013-04-01T11:37:43Z</time>
      </trkpt>
      <trkpt lat="62.7829703" lon="14.4389242">
        <ele>289</ele>
        <time>2013-04-01T11:37:48Z</time>
      </trkpt>
      <trkpt lat="62.7831504" lon="14.4389568">
        <ele>289.4</ele>
        <time>2013-04-01T11:37:53Z</time>
      </trkpt>
      <trkpt lat="62.7833204" lon="14.4389505">
        <ele>289.8</ele>
        <time>2013-04-01T11:37:59Z</time>
      </trkpt>
      <trkpt lat="62.7833228" lon="14.4389101">
        <ele>290</ele>
        <time>2013-04-01T11:38:00Z</time>
      </trkpt>
      <trkpt lat="62.7832485" lon="14.4388901">
        <ele>291.8</ele>
        <time>2013-04-01T11:38:04Z</time>
      </trkpt>
      <trkpt lat="62.783149" lon="14.4389522">
        <ele>293.2</ele>
        <time>2013-04-01T11:38:07Z</time>
      </trkpt>
      <trkpt lat="62.7829538" lon="14.4389211">
        <ele>294.2</ele>
        <time>2013-04-01T11:38:13Z</time>
      </trkpt>
      <trkpt lat="62.7827527" lon="14.4389191">
        <ele>295.2</ele>
        <time>2013-04-01T11:38:18Z</time>
      </trkpt>
      <trkpt lat="62.7825469" lon="14.4389085">
        <ele>296.2</ele>
        <time>2013-04-01T11:38:23Z</time>
      </trkpt>
      <trkpt lat="62.7823357" lon="14.4389168">
        <ele>297.4</ele>
        <time>2013-04-01T11:38:29Z</time>
      </trkpt>
      <trkpt lat="62.7821451" lon="14.4389375">
        <ele>298</ele>
        <time>2013-04-01T11:38:34Z</time>
      </trkpt>
      <trkpt lat="62.781947" lon="14.4389252">
        <ele>299.4</ele>
        <time>2013-04-01T11:38:39Z</time>
      </trkpt>
      <trkpt lat="62.781741" lon="14.4388954">
        <ele>299.6</ele>
        <time>2013-04-01T11:38:44Z</time>
      </trkpt>
      <trkpt lat="62.7815274" lon="14.4388732">
        <ele>299</ele>
        <time>2013-04-01T11:38:49Z</time>
      </trkpt>
      <trkpt lat="62.7813157" lon="14.438847">
        <ele>299.4</ele>
        <time>2013-04-01T11:38:54Z</time>
      </trkpt>
      <trkpt lat="62.7812302" lon="14.4388519">
        <ele>299.4</ele>
        <time>2013-04-01T11:38:56Z</time>
      </trkpt>
      <trkpt lat="62.7810971" lon="14.4388521">
        <ele>299.2</ele>
        <time>2013-04-01T11:38:59Z</time>
      </trkpt>
      <trkpt lat="62.7809178" lon="14.4388417">
        <ele>299.8</ele>
        <time>2013-04-01T11:39:03Z</time>
      </trkpt>
      <trkpt lat="62.7807377" lon="14.4388314">
        <ele>300.8</ele>
        <time>2013-04-01T11:39:07Z</time>
      </trkpt>
      <trkpt lat="62.7805191" lon="14.4387998">
        <ele>301.8</ele>
        <time>2013-04-01T11:39:12Z</time>
      </trkpt>
      <trkpt lat="62.7803393" lon="14.4387609">
        <ele>302</ele>
        <time>2013-04-01T11:39:16Z</time>
      </trkpt>
      <trkpt lat="62.7802928" lon="14.4387442">
        <ele>302.4</ele>
        <time>2013-04-01T11:39:17Z</time>
      </trkpt>
      <trkpt lat="62.7801704" lon="14.4386921">
        <ele>302.6</ele>
        <time>2013-04-01T11:39:20Z</time>
      </trkpt>
      <trkpt lat="62.7801315" lon="14.4386781">
        <ele>303</ele>
        <time>2013-04-01T11:39:21Z</time>
      </trkpt>
      <trkpt lat="62.7800134" lon="14.4386295">
        <ele>303</ele>
        <time>2013-04-01T11:39:24Z</time>
      </trkpt>
      <trkpt lat="62.7799333" lon="14.4385886">
        <ele>303</ele>
        <time>2013-04-01T11:39:26Z</time>
      </trkpt>
      <trkpt lat="62.7797279" lon="14.4385196">
        <ele>302.4</ele>
        <time>2013-04-01T11:39:31Z</time>
      </trkpt>
      <trkpt lat="62.7796824" lon="14.4385061">
        <ele>302.4</ele>
        <time>2013-04-01T11:39:32Z</time>
      </trkpt>
      <trkpt lat="62.779513" lon="14.4384598">
        <ele>301.2</ele>
        <time>2013-04-01T11:39:36Z</time>
      </trkpt>
      <trkpt lat="62.7794312" lon="14.4384275">
        <ele>301.4</ele>
        <time>2013-04-01T11:39:38Z</time>
      </trkpt>
      <trkpt lat="62.7793027" lon="14.4383833">
        <ele>300.8</ele>
        <time>2013-04-01T11:39:41Z</time>
      </trkpt>
      <trkpt lat="62.7791699" lon="14.4383465">
        <ele>301.4</ele>
        <time>2013-04-01T11:39:44Z</time>
      </trkpt>
      <trkpt lat="62.7791195" lon="14.4383236">
        <ele>301.6</ele>
        <time>2013-04-01T11:39:45Z</time>
      </trkpt>
      <trkpt lat="62.778938" lon="14.4382531">
        <ele>302</ele>
        <time>2013-04-01T11:39:49Z</time>
      </trkpt>
      <trkpt lat="62.7787775" lon="14.438194">
        <ele>302.8</ele>
        <time>2013-04-01T11:39:53Z</time>
      </trkpt>
      <trkpt lat="62.7787422" lon="14.4381776">
        <ele>302.8</ele>
        <time>2013-04-01T11:39:54Z</time>
      </trkpt>
      <trkpt lat="62.7785941" lon="14.4381249">
        <ele>304.2</ele>
        <time>2013-04-01T11:39:58Z</time>
      </trkpt>
      <trkpt lat="62.7785535" lon="14.4381156">
        <ele>304.4</ele>
        <time>2013-04-01T11:39:59Z</time>
      </trkpt>
      <trkpt lat="62.7783434" lon="14.4380538">
        <ele>305.6</ele>
        <time>2013-04-01T11:40:04Z</time>
      </trkpt>
      <trkpt lat="62.7781377" lon="14.437976">
        <ele>306.2</ele>
        <time>2013-04-01T11:40:09Z</time>
      </trkpt>
      <trkpt lat="62.7780989" lon="14.4379674">
        <ele>306.2</ele>
        <time>2013-04-01T11:40:10Z</time>
      </trkpt>
      <trkpt lat="62.7779819" lon="14.4379353">
        <ele>305.4</ele>
        <time>2013-04-01T11:40:13Z</time>
      </trkpt>
      <trkpt lat="62.7779431" lon="14.4379322">
        <ele>305.2</ele>
        <time>2013-04-01T11:40:14Z</time>
      </trkpt>
      <trkpt lat="62.7777822" lon="14.4378726">
        <ele>304.2</ele>
        <time>2013-04-01T11:40:18Z</time>
      </trkpt>
      <trkpt lat="62.7777381" lon="14.4378529">
        <ele>304.4</ele>
        <time>2013-04-01T11:40:19Z</time>
      </trkpt>
      <trkpt lat="62.7776522" lon="14.4378047">
        <ele>304</ele>
        <time>2013-04-01T11:40:21Z</time>
      </trkpt>
      <trkpt lat="62.7775316" lon="14.4377483">
        <ele>303.6</ele>
        <time>2013-04-01T11:40:24Z</time>
      </trkpt>
      <trkpt lat="62.7773393" lon="14.4376352">
        <ele>302.2</ele>
        <time>2013-04-01T11:40:29Z</time>
      </trkpt>
      <trkpt lat="62.7772203" lon="14.4375557">
        <ele>301.6</ele>
        <time>2013-04-01T11:40:32Z</time>
      </trkpt>
      <trkpt lat="62.7771514" lon="14.4374818">
        <ele>301</ele>
        <time>2013-04-01T11:40:34Z</time>
      </trkpt>
      <trkpt lat="62.7769518" lon="14.4373112">
        <ele>299.6</ele>
        <time>2013-04-01T11:40:40Z</time>
      </trkpt>
      <trkpt lat="62.7767509" lon="14.4371913">
        <ele>301.4</ele>
        <time>2013-04-01T11:40:45Z</time>
      </trkpt>
      <trkpt lat="62.7765532" lon="14.4370879">
        <ele>302.2</ele>
        <time>2013-04-01T11:40:50Z</time>
      </trkpt>
      <trkpt lat="62.7765125" lon="14.4370604">
        <ele>302.4</ele>
        <time>2013-04-01T11:40:51Z</time>
      </trkpt>
      <trkpt lat="62.7763464" lon="14.436937">
        <ele>303.6</ele>
        <time>2013-04-01T11:40:55Z</time>
      </trkpt>
      <trkpt lat="62.7762283" lon="14.4368542">
        <ele>303.8</ele>
        <time>2013-04-01T11:40:58Z</time>
      </trkpt>
      <trkpt lat="62.7761496" lon="14.4367949">
        <ele>304.2</ele>
        <time>2013-04-01T11:41:00Z</time>
      </trkpt>
      <trkpt lat="62.7761114" lon="14.4367638">
        <ele>304.2</ele>
        <time>2013-04-01T11:41:01Z</time>
      </trkpt>
      <trkpt lat="62.776029" lon="14.4367046">
        <ele>304.8</ele>
        <time>2013-04-01T11:41:03Z</time>
      </trkpt>
      <trkpt lat="62.7759502" lon="14.4366432">
        <ele>304.8</ele>
        <time>2013-04-01T11:41:05Z</time>
      </trkpt>
      <trkpt lat="62.7758709" lon="14.4365693">
        <ele>305</ele>
        <time>2013-04-01T11:41:07Z</time>
      </trkpt>
      <trkpt lat="62.7757534" lon="14.4364832">
        <ele>304.2</ele>
        <time>2013-04-01T11:41:10Z</time>
      </trkpt>
      <trkpt lat="62.7757148" lon="14.4364587">
        <ele>304</ele>
        <time>2013-04-01T11:41:11Z</time>
      </trkpt>
      <trkpt lat="62.7755508" lon="14.4363608">
        <ele>303.8</ele>
        <time>2013-04-01T11:41:15Z</time>
      </trkpt>
      <trkpt lat="62.7755082" lon="14.4363427">
        <ele>303.6</ele>
        <time>2013-04-01T11:41:16Z</time>
      </trkpt>
      <trkpt lat="62.7753523" lon="14.4362527">
        <ele>303.8</ele>
        <time>2013-04-01T11:41:20Z</time>
      </trkpt>
      <trkpt lat="62.7752862" lon="14.4361926">
        <ele>304</ele>
        <time>2013-04-01T11:41:22Z</time>
      </trkpt>
      <trkpt lat="62.7751465" lon="14.4361004">
        <ele>304.8</ele>
        <time>2013-04-01T11:41:26Z</time>
      </trkpt>
      <trkpt lat="62.7749487" lon="14.4359884">
        <ele>304.8</ele>
        <time>2013-04-01T11:41:31Z</time>
      </trkpt>
      <trkpt lat="62.7747386" lon="14.4358529">
        <ele>305</ele>
        <time>2013-04-01T11:41:36Z</time>
      </trkpt>
      <trkpt lat="62.7746137" lon="14.4357662">
        <ele>305.4</ele>
        <time>2013-04-01T11:41:39Z</time>
      </trkpt>
      <trkpt lat="62.774533" lon="14.4357107">
        <ele>305.6</ele>
        <time>2013-04-01T11:41:41Z</time>
      </trkpt>
      <trkpt lat="62.7743495" lon="14.4354325">
        <ele>300.8</ele>
        <time>2013-04-01T11:41:47Z</time>
      </trkpt>
      <trkpt lat="62.7741889" lon="14.4352831">
        <ele>299</ele>
        <time>2013-04-01T11:41:51Z</time>
      </trkpt>
      <trkpt lat="62.77415" lon="14.4352602">
        <ele>299</ele>
        <time>2013-04-01T11:41:52Z</time>
      </trkpt>
      <trkpt lat="62.7739678" lon="14.4351684">
        <ele>299.4</ele>
        <time>2013-04-01T11:41:57Z</time>
      </trkpt>
      <trkpt lat="62.7737838" lon="14.4350401">
        <ele>299.4</ele>
        <time>2013-04-01T11:42:02Z</time>
      </trkpt>
      <trkpt lat="62.773591" lon="14.4348645">
        <ele>299.4</ele>
        <time>2013-04-01T11:42:07Z</time>
      </trkpt>
      <trkpt lat="62.7735167" lon="14.4347924">
        <ele>299.4</ele>
        <time>2013-04-01T11:42:09Z</time>
      </trkpt>
      <trkpt lat="62.7734047" lon="14.4346555">
        <ele>299.6</ele>
        <time>2013-04-01T11:42:12Z</time>
      </trkpt>
      <trkpt lat="62.7732705" lon="14.4344755">
        <ele>301</ele>
        <time>2013-04-01T11:42:16Z</time>
      </trkpt>
      <trkpt lat="62.7732356" lon="14.4344245">
        <ele>301.8</ele>
        <time>2013-04-01T11:42:17Z</time>
      </trkpt>
      <trkpt lat="62.7730838" lon="14.4341646">
        <ele>299.6</ele>
        <time>2013-04-01T11:42:22Z</time>
      </trkpt>
      <trkpt lat="62.7729276" lon="14.4339148">
        <ele>298.2</ele>
        <time>2013-04-01T11:42:27Z</time>
      </trkpt>
      <trkpt lat="62.7727836" lon="14.4336477">
        <ele>297</ele>
        <time>2013-04-01T11:42:33Z</time>
      </trkpt>
      <trkpt lat="62.7726656" lon="14.4334187">
        <ele>296.6</ele>
        <time>2013-04-01T11:43:05Z</time>
      </trkpt>
      <trkpt lat="62.772566" lon="14.4332544">
        <ele>297</ele>
        <time>2013-04-01T11:43:12Z</time>
      </trkpt>
      <trkpt lat="62.7725049" lon="14.4331394">
        <ele>299.6</ele>
        <time>2013-04-01T11:43:28Z</time>
      </trkpt>
      <trkpt lat="62.7724184" lon="14.4330005">
        <ele>298</ele>
        <time>2013-04-01T11:43:32Z</time>
      </trkpt>
      <trkpt lat="62.772393" lon="14.432966">
        <ele>297.8</ele>
        <time>2013-04-01T11:43:33Z</time>
      </trkpt>
      <trkpt lat="62.7722267" lon="14.432765">
        <ele>294</ele>
        <time>2013-04-01T11:43:40Z</time>
      </trkpt>
      <trkpt lat="62.772062" lon="14.4326131">
        <ele>292.4</ele>
        <time>2013-04-01T11:43:44Z</time>
      </trkpt>
      <trkpt lat="62.7718618" lon="14.4324809">
        <ele>289.8</ele>
        <time>2013-04-01T11:43:48Z</time>
      </trkpt>
      <trkpt lat="62.771681" lon="14.4323718">
        <ele>288.2</ele>
        <time>2013-04-01T11:43:51Z</time>
      </trkpt>
      <trkpt lat="62.7714464" lon="14.4322423">
        <ele>288.8</ele>
        <time>2013-04-01T11:43:55Z</time>
      </trkpt>
      <trkpt lat="62.7712672" lon="14.4321494">
        <ele>288.2</ele>
        <time>2013-04-01T11:43:58Z</time>
      </trkpt>
      <trkpt lat="62.7710512" lon="14.4320279">
        <ele>287.2</ele>
        <time>2013-04-01T11:44:02Z</time>
      </trkpt>
      <trkpt lat="62.7708431" lon="14.4319533">
        <ele>287</ele>
        <time>2013-04-01T11:44:06Z</time>
      </trkpt>
      <trkpt lat="62.7707992" lon="14.4319332">
        <ele>286.2</ele>
        <time>2013-04-01T11:44:07Z</time>
      </trkpt>
      <trkpt lat="62.7706355" lon="14.4318658">
        <ele>283.6</ele>
        <time>2013-04-01T11:44:11Z</time>
      </trkpt>
      <trkpt lat="62.7704334" lon="14.4317901">
        <ele>283.2</ele>
        <time>2013-04-01T11:44:16Z</time>
      </trkpt>
      <trkpt lat="62.7703423" lon="14.4317554">
        <ele>282.2</ele>
        <time>2013-04-01T11:44:18Z</time>
      </trkpt>
      <trkpt lat="62.7702472" lon="14.4317097">
        <ele>283</ele>
        <time>2013-04-01T11:44:20Z</time>
      </trkpt>
      <trkpt lat="62.7700467" lon="14.4316016">
        <ele>284.4</ele>
        <time>2013-04-01T11:44:24Z</time>
      </trkpt>
      <trkpt lat="62.769901" lon="14.4315508">
        <ele>285.8</ele>
        <time>2013-04-01T11:44:27Z</time>
      </trkpt>
      <trkpt lat="62.7698478" lon="14.4315289">
        <ele>286.2</ele>
        <time>2013-04-01T11:44:28Z</time>
      </trkpt>
      <trkpt lat="62.7697966" lon="14.431512">
        <ele>287.2</ele>
        <time>2013-04-01T11:44:29Z</time>
      </trkpt>
      <trkpt lat="62.7696513" lon="14.4314555">
        <ele>288.2</ele>
        <time>2013-04-01T11:44:32Z</time>
      </trkpt>
      <trkpt lat="62.7696044" lon="14.4314399">
        <ele>288.4</ele>
        <time>2013-04-01T11:44:33Z</time>
      </trkpt>
      <trkpt lat="62.7694821" lon="14.4313813">
        <ele>289.6</ele>
        <time>2013-04-01T11:44:36Z</time>
      </trkpt>
      <trkpt lat="62.7694428" lon="14.4313693">
        <ele>290</ele>
        <time>2013-04-01T11:44:37Z</time>
      </trkpt>
      <trkpt lat="62.769402" lon="14.4313577">
        <ele>290.6</ele>
        <time>2013-04-01T11:44:38Z</time>
      </trkpt>
      <trkpt lat="62.7693294" lon="14.431334">
        <ele>289</ele>
        <time>2013-04-01T11:44:40Z</time>
      </trkpt>
      <trkpt lat="62.7692462" lon="14.4312949">
        <ele>288.8</ele>
        <time>2013-04-01T11:44:42Z</time>
      </trkpt>
      <trkpt lat="62.769029" lon="14.4312124">
        <ele>288</ele>
        <time>2013-04-01T11:44:47Z</time>
      </trkpt>
      <trkpt lat="62.768843" lon="14.4311099">
        <ele>287.4</ele>
        <time>2013-04-01T11:44:51Z</time>
      </trkpt>
      <trkpt lat="62.7686419" lon="14.4309437">
        <ele>285.6</ele>
        <time>2013-04-01T11:44:56Z</time>
      </trkpt>
      <trkpt lat="62.7685633" lon="14.4308691">
        <ele>285.2</ele>
        <time>2013-04-01T11:44:58Z</time>
      </trkpt>
      <trkpt lat="62.7684865" lon="14.4308105">
        <ele>285</ele>
        <time>2013-04-01T11:45:00Z</time>
      </trkpt>
      <trkpt lat="62.7684461" lon="14.4307726">
        <ele>285.4</ele>
        <time>2013-04-01T11:45:01Z</time>
      </trkpt>
      <trkpt lat="62.7682949" lon="14.4306405">
        <ele>284.4</ele>
        <time>2013-04-01T11:45:05Z</time>
      </trkpt>
      <trkpt lat="62.7682588" lon="14.430608">
        <ele>283.6</ele>
        <time>2013-04-01T11:45:06Z</time>
      </trkpt>
      <trkpt lat="62.7681073" lon="14.4303296">
        <ele>286</ele>
        <time>2013-04-01T11:45:11Z</time>
      </trkpt>
      <trkpt lat="62.767991" lon="14.4299841">
        <ele>285.8</ele>
        <time>2013-04-01T11:45:17Z</time>
      </trkpt>
      <trkpt lat="62.7679856" lon="14.4298917">
        <ele>286</ele>
        <time>2013-04-01T11:45:19Z</time>
      </trkpt>
      <trkpt lat="62.7681272" lon="14.4299404">
        <ele>296.2</ele>
        <time>2013-04-01T11:45:39Z</time>
      </trkpt>
      <trkpt lat="62.7682699" lon="14.4300639">
        <ele>301</ele>
        <time>2013-04-01T11:46:24Z</time>
      </trkpt>
      <trkpt lat="62.7683851" lon="14.4301759">
        <ele>300.4</ele>
        <time>2013-04-01T11:46:29Z</time>
      </trkpt>
      <trkpt lat="62.7685321" lon="14.4303665">
        <ele>300.2</ele>
        <time>2013-04-01T11:46:34Z</time>
      </trkpt>
      <trkpt lat="62.768564" lon="14.4303999">
        <ele>300.2</ele>
        <time>2013-04-01T11:46:35Z</time>
      </trkpt>
      <trkpt lat="62.7687483" lon="14.4306093">
        <ele>300.2</ele>
        <time>2013-04-01T11:46:41Z</time>
      </trkpt>
      <trkpt lat="62.7689182" lon="14.4307685">
        <ele>298.2</ele>
        <time>2013-04-01T11:46:46Z</time>
      </trkpt>
      <trkpt lat="62.7691107" lon="14.4308845">
        <ele>296.6</ele>
        <time>2013-04-01T11:46:52Z</time>
      </trkpt>
      <trkpt lat="62.7692638" lon="14.4311167">
        <ele>294.4</ele>
        <time>2013-04-01T11:46:58Z</time>
      </trkpt>
      <trkpt lat="62.7694572" lon="14.4312306">
        <ele>293.2</ele>
        <time>2013-04-01T11:47:04Z</time>
      </trkpt>
      <trkpt lat="62.7696439" lon="14.4313069">
        <ele>293.2</ele>
        <time>2013-04-01T11:47:09Z</time>
      </trkpt>
      <trkpt lat="62.769834" lon="14.4313876">
        <ele>293.8</ele>
        <time>2013-04-01T11:47:14Z</time>
      </trkpt>
      <trkpt lat="62.7700231" lon="14.4314668">
        <ele>295</ele>
        <time>2013-04-01T11:47:19Z</time>
      </trkpt>
      <trkpt lat="62.7702059" lon="14.4315346">
        <ele>299.6</ele>
        <time>2013-04-01T11:47:24Z</time>
      </trkpt>
      <trkpt lat="62.7703851" lon="14.4316446">
        <ele>303.8</ele>
        <time>2013-04-01T11:47:29Z</time>
      </trkpt>
      <trkpt lat="62.7705673" lon="14.4317165">
        <ele>302.2</ele>
        <time>2013-04-01T11:47:35Z</time>
      </trkpt>
      <trkpt lat="62.7707655" lon="14.4317885">
        <ele>301.4</ele>
        <time>2013-04-01T11:47:41Z</time>
      </trkpt>
      <trkpt lat="62.7709782" lon="14.4318888">
        <ele>300</ele>
        <time>2013-04-01T11:47:47Z</time>
      </trkpt>
      <trkpt lat="62.7711819" lon="14.4319978">
        <ele>299.6</ele>
        <time>2013-04-01T11:47:52Z</time>
      </trkpt>
      <trkpt lat="62.7713704" lon="14.432103">
        <ele>300.8</ele>
        <time>2013-04-01T11:47:57Z</time>
      </trkpt>
      <trkpt lat="62.7714497" lon="14.4321525">
        <ele>301.8</ele>
        <time>2013-04-01T11:47:59Z</time>
      </trkpt>
      <trkpt lat="62.7715631" lon="14.4322128">
        <ele>302.2</ele>
        <time>2013-04-01T11:48:02Z</time>
      </trkpt>
      <trkpt lat="62.7717406" lon="14.4323084">
        <ele>300.4</ele>
        <time>2013-04-01T11:48:07Z</time>
      </trkpt>
      <trkpt lat="62.7719408" lon="14.4324312">
        <ele>299.6</ele>
        <time>2013-04-01T11:48:13Z</time>
      </trkpt>
      <trkpt lat="62.7721059" lon="14.4325656">
        <ele>297.2</ele>
        <time>2013-04-01T11:48:18Z</time>
      </trkpt>
      <trkpt lat="62.7722889" lon="14.4327582">
        <ele>296.2</ele>
        <time>2013-04-01T11:48:26Z</time>
      </trkpt>
      <trkpt lat="62.7724586" lon="14.4329976">
        <ele>295.6</ele>
        <time>2013-04-01T11:48:34Z</time>
      </trkpt>
      <trkpt lat="62.772611" lon="14.4332681">
        <ele>295.4</ele>
        <time>2013-04-01T11:48:40Z</time>
      </trkpt>
      <trkpt lat="62.7727508" lon="14.4335231">
        <ele>297.6</ele>
        <time>2013-04-01T11:48:46Z</time>
      </trkpt>
      <trkpt lat="62.7728728" lon="14.4338792">
        <ele>302.4</ele>
        <time>2013-04-01T11:48:52Z</time>
      </trkpt>
      <trkpt lat="62.7729654" lon="14.4342575">
        <ele>303.6</ele>
        <time>2013-04-01T11:48:58Z</time>
      </trkpt>
      <trkpt lat="62.7730002" lon="14.434583">
        <ele>302.6</ele>
        <time>2013-04-01T11:49:03Z</time>
      </trkpt>
      <trkpt lat="62.772998" lon="14.4346546">
        <ele>302.6</ele>
        <time>2013-04-01T11:49:04Z</time>
      </trkpt>
      <trkpt lat="62.7730123" lon="14.4348381">
        <ele>302</ele>
        <time>2013-04-01T11:49:07Z</time>
      </trkpt>
      <trkpt lat="62.7730421" lon="14.4350593">
        <ele>303</ele>
        <time>2013-04-01T11:49:11Z</time>
      </trkpt>
      <trkpt lat="62.7730845" lon="14.4355125">
        <ele>303.4</ele>
        <time>2013-04-01T11:49:18Z</time>
      </trkpt>
      <trkpt lat="62.7731094" lon="14.435945">
        <ele>301.8</ele>
        <time>2013-04-01T11:49:24Z</time>
      </trkpt>
      <trkpt lat="62.7731628" lon="14.4363345">
        <ele>302.4</ele>
        <time>2013-04-01T11:49:30Z</time>
      </trkpt>
      <trkpt lat="62.7732383" lon="14.4369812">
        <ele>305</ele>
        <time>2013-04-01T11:50:27Z</time>
      </trkpt>
      <trkpt lat="62.7733496" lon="14.4373246">
        <ele>299.8</ele>
        <time>2013-04-01T11:50:33Z</time>
      </trkpt>
      <trkpt lat="62.7734661" lon="14.4376447">
        <ele>294.8</ele>
        <time>2013-04-01T11:50:38Z</time>
      </trkpt>
      <trkpt lat="62.7735853" lon="14.4379684">
        <ele>291.8</ele>
        <time>2013-04-01T11:50:43Z</time>
      </trkpt>
      <trkpt lat="62.7736854" lon="14.4382869">
        <ele>288.8</ele>
        <time>2013-04-01T11:50:48Z</time>
      </trkpt>
      <trkpt lat="62.7737982" lon="14.4386593">
        <ele>287.8</ele>
        <time>2013-04-01T11:50:54Z</time>
      </trkpt>
      <trkpt lat="62.7739051" lon="14.438997">
        <ele>286.6</ele>
        <time>2013-04-01T11:51:00Z</time>
      </trkpt>
      <trkpt lat="62.7740294" lon="14.4393566">
        <ele>285</ele>
        <time>2013-04-01T11:51:06Z</time>
      </trkpt>
      <trkpt lat="62.7741422" lon="14.4396825">
        <ele>285.6</ele>
        <time>2013-04-01T11:51:12Z</time>
      </trkpt>
      <trkpt lat="62.7742818" lon="14.4400252">
        <ele>288.6</ele>
        <time>2013-04-01T11:51:19Z</time>
      </trkpt>
      <trkpt lat="62.7743996" lon="14.440373">
        <ele>291.6</ele>
        <time>2013-04-01T11:51:26Z</time>
      </trkpt>
      <trkpt lat="62.7745225" lon="14.4407206">
        <ele>293.8</ele>
        <time>2013-04-01T11:51:34Z</time>
      </trkpt>
      <trkpt lat="62.7746644" lon="14.441027">
        <ele>294.8</ele>
        <time>2013-04-01T11:51:40Z</time>
      </trkpt>
      <trkpt lat="62.7747927" lon="14.4413168">
        <ele>294.4</ele>
        <time>2013-04-01T11:51:46Z</time>
      </trkpt>
      <trkpt lat="62.7749467" lon="14.4415585">
        <ele>294.4</ele>
        <time>2013-04-01T11:51:52Z</time>
      </trkpt>
      <trkpt lat="62.775112" lon="14.4417238">
        <ele>295.8</ele>
        <time>2013-04-01T11:51:58Z</time>
      </trkpt>
      <trkpt lat="62.7752932" lon="14.4419353">
        <ele>296.4</ele>
        <time>2013-04-01T11:52:05Z</time>
      </trkpt>
      <trkpt lat="62.7754762" lon="14.4421171">
        <ele>296.6</ele>
        <time>2013-04-01T11:52:12Z</time>
      </trkpt>
      <trkpt lat="62.7756488" lon="14.4423262">
        <ele>296.2</ele>
        <time>2013-04-01T11:52:19Z</time>
      </trkpt>
      <trkpt lat="62.775827" lon="14.4425168">
        <ele>297.4</ele>
        <time>2013-04-01T11:52:25Z</time>
      </trkpt>
      <trkpt lat="62.7759917" lon="14.4427206">
        <ele>297</ele>
        <time>2013-04-01T11:52:31Z</time>
      </trkpt>
      <trkpt lat="62.7761889" lon="14.4428559">
        <ele>295.4</ele>
        <time>2013-04-01T11:52:38Z</time>
      </trkpt>
      <trkpt lat="62.7763672" lon="14.4430159">
        <ele>295.6</ele>
        <time>2013-04-01T11:52:45Z</time>
      </trkpt>
      <trkpt lat="62.7765317" lon="14.4431951">
        <ele>295</ele>
        <time>2013-04-01T11:52:52Z</time>
      </trkpt>
      <trkpt lat="62.7767039" lon="14.4433656">
        <ele>296</ele>
        <time>2013-04-01T11:53:00Z</time>
      </trkpt>
      <trkpt lat="62.7769026" lon="14.4435734">
        <ele>296.6</ele>
        <time>2013-04-01T11:53:18Z</time>
      </trkpt>
      <trkpt lat="62.776952" lon="14.4435754">
        <ele>296.6</ele>
        <time>2013-04-01T11:53:21Z</time>
      </trkpt>
      <trkpt lat="62.7771412" lon="14.4437043">
        <ele>296.4</ele>
        <time>2013-04-01T11:53:28Z</time>
      </trkpt>
      <trkpt lat="62.7773258" lon="14.4438509">
        <ele>296.6</ele>
        <time>2013-04-01T11:53:34Z</time>
      </trkpt>
      <trkpt lat="62.777499" lon="14.444026">
        <ele>297.4</ele>
        <time>2013-04-01T11:53:40Z</time>
      </trkpt>
      <trkpt lat="62.7776693" lon="14.4441809">
        <ele>299.6</ele>
        <time>2013-04-01T11:53:46Z</time>
      </trkpt>
      <trkpt lat="62.7778338" lon="14.4443818">
        <ele>302</ele>
        <time>2013-04-01T11:53:52Z</time>
      </trkpt>
      <trkpt lat="62.7780215" lon="14.4445611">
        <ele>303.2</ele>
        <time>2013-04-01T11:53:59Z</time>
      </trkpt>
      <trkpt lat="62.7782036" lon="14.4447021">
        <ele>302.8</ele>
        <time>2013-04-01T11:54:06Z</time>
      </trkpt>
      <trkpt lat="62.7783803" lon="14.4448479">
        <ele>302.4</ele>
        <time>2013-04-01T11:54:13Z</time>
      </trkpt>
      <trkpt lat="62.7783987" lon="14.4448803">
        <ele>302.6</ele>
        <time>2013-04-01T11:54:14Z</time>
      </trkpt>
      <trkpt lat="62.7785654" lon="14.4450259">
        <ele>301.2</ele>
        <time>2013-04-01T11:54:21Z</time>
      </trkpt>
      <trkpt lat="62.7787306" lon="14.4451926">
        <ele>299.2</ele>
        <time>2013-04-01T11:54:28Z</time>
      </trkpt>
      <trkpt lat="62.7788273" lon="14.4453081">
        <ele>299</ele>
        <time>2013-04-01T11:54:33Z</time>
      </trkpt>
      <trkpt lat="62.778897" lon="14.4453666">
        <ele>299.2</ele>
        <time>2013-04-01T11:54:36Z</time>
      </trkpt>
      <trkpt lat="62.7790608" lon="14.4455267">
        <ele>298.6</ele>
        <time>2013-04-01T11:54:42Z</time>
      </trkpt>
      <trkpt lat="62.7792504" lon="14.4457298">
        <ele>297.6</ele>
        <time>2013-04-01T11:54:49Z</time>
      </trkpt>
      <trkpt lat="62.7794203" lon="14.4458831">
        <ele>297.4</ele>
        <time>2013-04-01T11:54:55Z</time>
      </trkpt>
      <trkpt lat="62.7796001" lon="14.4460495">
        <ele>297.8</ele>
        <time>2013-04-01T11:55:01Z</time>
      </trkpt>
      <trkpt lat="62.7797772" lon="14.4461836">
        <ele>298.8</ele>
        <time>2013-04-01T11:55:08Z</time>
      </trkpt>
      <trkpt lat="62.7799678" lon="14.4463099">
        <ele>299</ele>
        <time>2013-04-01T11:55:15Z</time>
      </trkpt>
      <trkpt lat="62.7801616" lon="14.4464477">
        <ele>298.8</ele>
        <time>2013-04-01T11:55:21Z</time>
      </trkpt>
      <trkpt lat="62.7803672" lon="14.4465967">
        <ele>299.2</ele>
        <time>2013-04-01T11:55:27Z</time>
      </trkpt>
      <trkpt lat="62.7805614" lon="14.4467409">
        <ele>299.4</ele>
        <time>2013-04-01T11:55:33Z</time>
      </trkpt>
      <trkpt lat="62.7806554" lon="14.4468461">
        <ele>299</ele>
        <time>2013-04-01T11:55:37Z</time>
      </trkpt>
      <trkpt lat="62.7807343" lon="14.4468999">
        <ele>299.4</ele>
        <time>2013-04-01T11:55:40Z</time>
      </trkpt>
      <trkpt lat="62.7809285" lon="14.4470385">
        <ele>300</ele>
        <time>2013-04-01T11:55:47Z</time>
      </trkpt>
      <trkpt lat="62.7811124" lon="14.4471836">
        <ele>297.4</ele>
        <time>2013-04-01T11:55:54Z</time>
      </trkpt>
      <trkpt lat="62.7812868" lon="14.4473266">
        <ele>297</ele>
        <time>2013-04-01T11:56:00Z</time>
      </trkpt>
      <trkpt lat="62.7814847" lon="14.4474511">
        <ele>297.6</ele>
        <time>2013-04-01T11:56:07Z</time>
      </trkpt>
      <trkpt lat="62.7816839" lon="14.4475965">
        <ele>297.6</ele>
        <time>2013-04-01T11:56:14Z</time>
      </trkpt>
      <trkpt lat="62.7818632" lon="14.4476871">
        <ele>296.6</ele>
        <time>2013-04-01T11:56:20Z</time>
      </trkpt>
      <trkpt lat="62.7820662" lon="14.4478009">
        <ele>294.8</ele>
        <time>2013-04-01T11:56:27Z</time>
      </trkpt>
      <trkpt lat="62.7822717" lon="14.4478879">
        <ele>295.6</ele>
        <time>2013-04-01T11:56:34Z</time>
      </trkpt>
      <trkpt lat="62.7824652" lon="14.448023">
        <ele>295.8</ele>
        <time>2013-04-01T11:56:42Z</time>
      </trkpt>
      <trkpt lat="62.7826372" lon="14.448164">
        <ele>295.6</ele>
        <time>2013-04-01T11:56:51Z</time>
      </trkpt>
      <trkpt lat="62.7828179" lon="14.4483021">
        <ele>294.8</ele>
        <time>2013-04-01T11:57:03Z</time>
      </trkpt>
      <trkpt lat="62.7830753" lon="14.448514">
        <ele>295.4</ele>
        <time>2013-04-01T11:57:19Z</time>
      </trkpt>
      <trkpt lat="62.7832613" lon="14.4486586">
        <ele>295.2</ele>
        <time>2013-04-01T11:57:26Z</time>
      </trkpt>
      <trkpt lat="62.7834163" lon="14.4487787">
        <ele>295.2</ele>
        <time>2013-04-01T11:57:38Z</time>
      </trkpt>
      <trkpt lat="62.7834396" lon="14.4487974">
        <ele>295</ele>
        <time>2013-04-01T11:57:41Z</time>
      </trkpt>
      <trkpt lat="62.7876416" lon="14.452024">
        <ele>298</ele>
        <time>2013-04-01T12:00:51Z</time>
      </trkpt>
      <trkpt lat="62.787823" lon="14.4521892">
        <ele>300.6</ele>
        <time>2013-04-01T12:00:59Z</time>
      </trkpt>
      <trkpt lat="62.7880163" lon="14.4523342">
        <ele>299.4</ele>
        <time>2013-04-01T12:01:06Z</time>
      </trkpt>
      <trkpt lat="62.788213" lon="14.4524696">
        <ele>298.4</ele>
        <time>2013-04-01T12:01:13Z</time>
      </trkpt>
      <trkpt lat="62.7883983" lon="14.4526016">
        <ele>296</ele>
        <time>2013-04-01T12:01:22Z</time>
      </trkpt>
      <trkpt lat="62.7884076" lon="14.4526027">
        <ele>295</ele>
        <time>2013-04-01T12:01:24Z</time>
      </trkpt>
      <trkpt lat="62.788559" lon="14.4524628">
        <ele>293.4</ele>
        <time>2013-04-01T12:01:35Z</time>
      </trkpt>
      <trkpt lat="62.7887379" lon="14.4524063">
        <ele>293.2</ele>
        <time>2013-04-01T12:01:42Z</time>
      </trkpt>
      <trkpt lat="62.7889266" lon="14.4525477">
        <ele>293.6</ele>
        <time>2013-04-01T12:01:49Z</time>
      </trkpt>
      <trkpt lat="62.788994" lon="14.4525923">
        <ele>294.6</ele>
        <time>2013-04-01T12:01:52Z</time>
      </trkpt>
      <trkpt lat="62.7891175" lon="14.4526426">
        <ele>294.6</ele>
        <time>2013-04-01T12:01:58Z</time>
      </trkpt>
      <trkpt lat="62.7893213" lon="14.4526529">
        <ele>295</ele>
        <time>2013-04-01T12:02:07Z</time>
      </trkpt>
      <trkpt lat="62.7895123" lon="14.4527233">
        <ele>295.6</ele>
        <time>2013-04-01T12:02:15Z</time>
      </trkpt>
      <trkpt lat="62.7896959" lon="14.4527913">
        <ele>296</ele>
        <time>2013-04-01T12:02:21Z</time>
      </trkpt>
      <trkpt lat="62.7898994" lon="14.4528688">
        <ele>295.8</ele>
        <time>2013-04-01T12:02:26Z</time>
      </trkpt>
      <trkpt lat="62.7900911" lon="14.4529726">
        <ele>295.6</ele>
        <time>2013-04-01T12:02:33Z</time>
      </trkpt>
      <trkpt lat="62.7902549" lon="14.4532285">
        <ele>296.6</ele>
        <time>2013-04-01T12:02:40Z</time>
      </trkpt>
      <trkpt lat="62.7904069" lon="14.4534896">
        <ele>297.2</ele>
        <time>2013-04-01T12:02:46Z</time>
      </trkpt>
      <trkpt lat="62.7905552" lon="14.4537644">
        <ele>299.2</ele>
        <time>2013-04-01T12:02:53Z</time>
      </trkpt>
      <trkpt lat="62.7907203" lon="14.4539485">
        <ele>300.2</ele>
        <time>2013-04-01T12:03:01Z</time>
      </trkpt>
      <trkpt lat="62.7909082" lon="14.4540467">
        <ele>300.6</ele>
        <time>2013-04-01T12:04:00Z</time>
      </trkpt>
      <trkpt lat="62.791088" lon="14.4541407">
        <ele>299.6</ele>
        <time>2013-04-01T12:04:08Z</time>
      </trkpt>
      <trkpt lat="62.791262" lon="14.454234">
        <ele>297.8</ele>
        <time>2013-04-01T12:04:14Z</time>
      </trkpt>
      <trkpt lat="62.7914516" lon="14.4543216">
        <ele>296.8</ele>
        <time>2013-04-01T12:04:20Z</time>
      </trkpt>
      <trkpt lat="62.7916322" lon="14.4544167">
        <ele>296</ele>
        <time>2013-04-01T12:04:26Z</time>
      </trkpt>
      <trkpt lat="62.7918115" lon="14.4544989">
        <ele>296.4</ele>
        <time>2013-04-01T12:04:32Z</time>
      </trkpt>
      <trkpt lat="62.7920016" lon="14.4545666">
        <ele>296</ele>
        <time>2013-04-01T12:04:39Z</time>
      </trkpt>
      <trkpt lat="62.7921809" lon="14.4546862">
        <ele>294.6</ele>
        <time>2013-04-01T12:04:46Z</time>
      </trkpt>
      <trkpt lat="62.792354" lon="14.4547997">
        <ele>294.4</ele>
        <time>2013-04-01T12:04:52Z</time>
      </trkpt>
      <trkpt lat="62.7925525" lon="14.4548983">
        <ele>293.2</ele>
        <time>2013-04-01T12:05:00Z</time>
      </trkpt>
      <trkpt lat="62.7927407" lon="14.454976">
        <ele>293</ele>
        <time>2013-04-01T12:05:07Z</time>
      </trkpt>
      <trkpt lat="62.7929331" lon="14.4550638">
        <ele>294.4</ele>
        <time>2013-04-01T12:05:15Z</time>
      </trkpt>
      <trkpt lat="62.7931289" lon="14.4551569">
        <ele>296</ele>
        <time>2013-04-01T12:05:23Z</time>
      </trkpt>
      <trkpt lat="62.7933014" lon="14.4552584">
        <ele>297.2</ele>
        <time>2013-04-01T12:05:29Z</time>
      </trkpt>
      <trkpt lat="62.7934821" lon="14.4553425">
        <ele>297.2</ele>
        <time>2013-04-01T12:05:35Z</time>
      </trkpt>
      <trkpt lat="62.7936738" lon="14.4553703">
        <ele>298</ele>
        <time>2013-04-01T12:05:42Z</time>
      </trkpt>
      <trkpt lat="62.7938666" lon="14.4552016">
        <ele>297</ele>
        <time>2013-04-01T12:05:49Z</time>
      </trkpt>
      <trkpt lat="62.7940344" lon="14.4550467">
        <ele>294</ele>
        <time>2013-04-01T12:05:55Z</time>
      </trkpt>
      <trkpt lat="62.7942266" lon="14.4549187">
        <ele>292.6</ele>
        <time>2013-04-01T12:06:02Z</time>
      </trkpt>
      <trkpt lat="62.7944108" lon="14.4549513">
        <ele>291.2</ele>
        <time>2013-04-01T12:06:09Z</time>
      </trkpt>
      <trkpt lat="62.7945971" lon="14.4550472">
        <ele>290.4</ele>
        <time>2013-04-01T12:06:18Z</time>
      </trkpt>
      <trkpt lat="62.794786" lon="14.4551466">
        <ele>291</ele>
        <time>2013-04-01T12:06:27Z</time>
      </trkpt>
      <trkpt lat="62.794987" lon="14.4552374">
        <ele>292.8</ele>
        <time>2013-04-01T12:06:34Z</time>
      </trkpt>
      <trkpt lat="62.7951761" lon="14.4553262">
        <ele>293.6</ele>
        <time>2013-04-01T12:06:41Z</time>
      </trkpt>
      <trkpt lat="62.7953593" lon="14.4554144">
        <ele>294.2</ele>
        <time>2013-04-01T12:06:48Z</time>
      </trkpt>
      <trkpt lat="62.795547" lon="14.4554926">
        <ele>294.4</ele>
        <time>2013-04-01T12:06:56Z</time>
      </trkpt>
      <trkpt lat="62.7957234" lon="14.4555621">
        <ele>294.2</ele>
        <time>2013-04-01T12:07:03Z</time>
      </trkpt>
      <trkpt lat="62.7959168" lon="14.4556256">
        <ele>293.8</ele>
        <time>2013-04-01T12:07:10Z</time>
      </trkpt>
      <trkpt lat="62.7961044" lon="14.455659">
        <ele>292.2</ele>
        <time>2013-04-01T12:07:17Z</time>
      </trkpt>
      <trkpt lat="62.7963074" lon="14.4557111">
        <ele>291</ele>
        <time>2013-04-01T12:07:24Z</time>
      </trkpt>
      <trkpt lat="62.796498" lon="14.4558048">
        <ele>289.8</ele>
        <time>2013-04-01T12:07:31Z</time>
      </trkpt>
      <trkpt lat="62.7966999" lon="14.4559138">
        <ele>290.6</ele>
        <time>2013-04-01T12:07:39Z</time>
      </trkpt>
      <trkpt lat="62.7968693" lon="14.456026">
        <ele>294</ele>
        <time>2013-04-01T12:08:03Z</time>
      </trkpt>
      <trkpt lat="62.7968884" lon="14.4560376">
        <ele>294.2</ele>
        <time>2013-04-01T12:08:04Z</time>
      </trkpt>
      <trkpt lat="62.7970752" lon="14.4561301">
        <ele>295.2</ele>
        <time>2013-04-01T12:08:14Z</time>
      </trkpt>
      <trkpt lat="62.7972512" lon="14.4562265">
        <ele>296.4</ele>
        <time>2013-04-01T12:08:21Z</time>
      </trkpt>
      <trkpt lat="62.7974425" lon="14.4563447">
        <ele>295.4</ele>
        <time>2013-04-01T12:08:29Z</time>
      </trkpt>
      <trkpt lat="62.7976231" lon="14.4564588">
        <ele>294.8</ele>
        <time>2013-04-01T12:08:37Z</time>
      </trkpt>
      <trkpt lat="62.797816" lon="14.4565515">
        <ele>295.4</ele>
        <time>2013-04-01T12:08:44Z</time>
      </trkpt>
      <trkpt lat="62.7980115" lon="14.456621">
        <ele>294.2</ele>
        <time>2013-04-01T12:08:51Z</time>
      </trkpt>
      <trkpt lat="62.7982034" lon="14.4566954">
        <ele>293.8</ele>
        <time>2013-04-01T12:08:59Z</time>
      </trkpt>
      <trkpt lat="62.7983893" lon="14.456796">
        <ele>294</ele>
        <time>2013-04-01T12:09:06Z</time>
      </trkpt>
      <trkpt lat="62.7985744" lon="14.4569127">
        <ele>293.2</ele>
        <time>2013-04-01T12:09:13Z</time>
      </trkpt>
      <trkpt lat="62.7987522" lon="14.4570093">
        <ele>292.6</ele>
        <time>2013-04-01T12:09:20Z</time>
      </trkpt>
      <trkpt lat="62.7989384" lon="14.4570795">
        <ele>292</ele>
        <time>2013-04-01T12:09:27Z</time>
      </trkpt>
      <trkpt lat="62.7991255" lon="14.4571717">
        <ele>292.2</ele>
        <time>2013-04-01T12:09:34Z</time>
      </trkpt>
      <trkpt lat="62.7993062" lon="14.4571765">
        <ele>293.2</ele>
        <time>2013-04-01T12:09:40Z</time>
      </trkpt>
      <trkpt lat="62.7995044" lon="14.4572701">
        <ele>293.4</ele>
        <time>2013-04-01T12:09:47Z</time>
      </trkpt>
      <trkpt lat="62.7996983" lon="14.4573731">
        <ele>292.2</ele>
        <time>2013-04-01T12:09:54Z</time>
      </trkpt>
      <trkpt lat="62.7998812" lon="14.4574493">
        <ele>292</ele>
        <time>2013-04-01T12:10:00Z</time>
      </trkpt>
      <trkpt lat="62.800064" lon="14.457533">
        <ele>292</ele>
        <time>2013-04-01T12:10:07Z</time>
      </trkpt>
      <trkpt lat="62.8002434" lon="14.457588">
        <ele>293.8</ele>
        <time>2013-04-01T12:10:15Z</time>
      </trkpt>
      <trkpt lat="62.8004319" lon="14.4576953">
        <ele>294.4</ele>
        <time>2013-04-01T12:10:23Z</time>
      </trkpt>
      <trkpt lat="62.8006202" lon="14.4578295">
        <ele>295.4</ele>
        <time>2013-04-01T12:10:31Z</time>
      </trkpt>
      <trkpt lat="62.8008046" lon="14.4579506">
        <ele>296.6</ele>
        <time>2013-04-01T12:10:40Z</time>
      </trkpt>
      <trkpt lat="62.8009813" lon="14.4580999">
        <ele>296.8</ele>
        <time>2013-04-01T12:10:48Z</time>
      </trkpt>
      <trkpt lat="62.8009996" lon="14.4581072">
        <ele>296.6</ele>
        <time>2013-04-01T12:10:49Z</time>
      </trkpt>
      <trkpt lat="62.8010778" lon="14.4581677">
        <ele>296.6</ele>
        <time>2013-04-01T12:10:53Z</time>
      </trkpt>
      <trkpt lat="62.8011478" lon="14.4582156">
        <ele>296.2</ele>
        <time>2013-04-01T12:10:57Z</time>
      </trkpt>
      <trkpt lat="62.8011644" lon="14.4582325">
        <ele>296.2</ele>
        <time>2013-04-01T12:10:58Z</time>
      </trkpt>
      <trkpt lat="62.8013435" lon="14.458338">
        <ele>296.4</ele>
        <time>2013-04-01T12:11:06Z</time>
      </trkpt>
      <trkpt lat="62.8015383" lon="14.4584604">
        <ele>297</ele>
        <time>2013-04-01T12:11:14Z</time>
      </trkpt>
      <trkpt lat="62.8017362" lon="14.4585872">
        <ele>298.2</ele>
        <time>2013-04-01T12:11:21Z</time>
      </trkpt>
      <trkpt lat="62.8019226" lon="14.458728">
        <ele>297.8</ele>
        <time>2013-04-01T12:11:27Z</time>
      </trkpt>
      <trkpt lat="62.8020962" lon="14.4588593">
        <ele>298.6</ele>
        <time>2013-04-01T12:11:33Z</time>
      </trkpt>
      <trkpt lat="62.8022599" lon="14.4590173">
        <ele>298.6</ele>
        <time>2013-04-01T12:11:38Z</time>
      </trkpt>
      <trkpt lat="62.8024534" lon="14.4591913">
        <ele>297.6</ele>
        <time>2013-04-01T12:11:44Z</time>
      </trkpt>
      <trkpt lat="62.8026358" lon="14.4593436">
        <ele>297.8</ele>
        <time>2013-04-01T12:11:50Z</time>
      </trkpt>
      <trkpt lat="62.8028168" lon="14.4595278">
        <ele>298.4</ele>
        <time>2013-04-01T12:11:56Z</time>
      </trkpt>
      <trkpt lat="62.8029835" lon="14.4597054">
        <ele>299.8</ele>
        <time>2013-04-01T12:12:01Z</time>
      </trkpt>
      <trkpt lat="62.8031546" lon="14.4599196">
        <ele>300.2</ele>
        <time>2013-04-01T12:12:07Z</time>
      </trkpt>
      <trkpt lat="62.8033204" lon="14.4601729">
        <ele>299.8</ele>
        <time>2013-04-01T12:12:14Z</time>
      </trkpt>
      <trkpt lat="62.803462" lon="14.4603396">
        <ele>297.8</ele>
        <time>2013-04-01T12:12:25Z</time>
      </trkpt>
      <trkpt lat="62.8034855" lon="14.4603688">
        <ele>297.6</ele>
        <time>2013-04-01T12:12:29Z</time>
      </trkpt>
      <trkpt lat="62.8034967" lon="14.4603778">
        <ele>297.4</ele>
        <time>2013-04-01T12:12:31Z</time>
      </trkpt>
      <trkpt lat="62.8035269" lon="14.4604333">
        <ele>296.4</ele>
        <time>2013-04-01T12:12:49Z</time>
      </trkpt>
      <trkpt lat="62.8036502" lon="14.4605992">
        <ele>296</ele>
        <time>2013-04-01T12:12:56Z</time>
      </trkpt>
      <trkpt lat="62.8038212" lon="14.4608199">
        <ele>296.4</ele>
        <time>2013-04-01T12:13:03Z</time>
      </trkpt>
      <trkpt lat="62.8039916" lon="14.4609866">
        <ele>297.8</ele>
        <time>2013-04-01T12:13:10Z</time>
      </trkpt>
      <trkpt lat="62.8040792" lon="14.4610518">
        <ele>298.4</ele>
        <time>2013-04-01T12:13:13Z</time>
      </trkpt>
      <trkpt lat="62.8041687" lon="14.4611693">
        <ele>299</ele>
        <time>2013-04-01T12:13:17Z</time>
      </trkpt>
      <trkpt lat="62.8043014" lon="14.4614462">
        <ele>300.2</ele>
        <time>2013-04-01T12:13:24Z</time>
      </trkpt>
      <trkpt lat="62.8044577" lon="14.4617414">
        <ele>301.4</ele>
        <time>2013-04-01T12:13:31Z</time>
      </trkpt>
      <trkpt lat="62.804603" lon="14.4620244">
        <ele>301.6</ele>
        <time>2013-04-01T12:13:38Z</time>
      </trkpt>
      <trkpt lat="62.8047469" lon="14.4623154">
        <ele>300.6</ele>
        <time>2013-04-01T12:13:45Z</time>
      </trkpt>
      <trkpt lat="62.8048948" lon="14.4625929">
        <ele>302.8</ele>
        <time>2013-04-01T12:13:52Z</time>
      </trkpt>
      <trkpt lat="62.8050452" lon="14.4628483">
        <ele>303</ele>
        <time>2013-04-01T12:13:59Z</time>
      </trkpt>
      <trkpt lat="62.8051754" lon="14.463141">
        <ele>303.2</ele>
        <time>2013-04-01T12:14:06Z</time>
      </trkpt>
      <trkpt lat="62.8053063" lon="14.4634279">
        <ele>301.2</ele>
        <time>2013-04-01T12:14:12Z</time>
      </trkpt>
      <trkpt lat="62.8054434" lon="14.4637273">
        <ele>301.8</ele>
        <time>2013-04-01T12:14:18Z</time>
      </trkpt>
      <trkpt lat="62.8055639" lon="14.4640513">
        <ele>298.8</ele>
        <time>2013-04-01T12:14:36Z</time>
      </trkpt>
      <trkpt lat="62.8055766" lon="14.4640833">
        <ele>298.8</ele>
        <time>2013-04-01T12:14:38Z</time>
      </trkpt>
      <trkpt lat="62.8055863" lon="14.4641168">
        <ele>298.4</ele>
        <time>2013-04-01T12:14:40Z</time>
      </trkpt>
      <trkpt lat="62.8056596" lon="14.4642352">
        <ele>298.2</ele>
        <time>2013-04-01T12:14:48Z</time>
      </trkpt>
      <trkpt lat="62.8056943" lon="14.4643139">
        <ele>297.6</ele>
        <time>2013-04-01T12:14:52Z</time>
      </trkpt>
      <trkpt lat="62.8057014" lon="14.464328">
        <ele>297.8</ele>
        <time>2013-04-01T12:14:53Z</time>
      </trkpt>
      <trkpt lat="62.8057741" lon="14.4645134">
        <ele>297</ele>
        <time>2013-04-01T12:15:02Z</time>
      </trkpt>
      <trkpt lat="62.8058155" lon="14.4646353">
        <ele>297</ele>
        <time>2013-04-01T12:15:06Z</time>
      </trkpt>
      <trkpt lat="62.8059314" lon="14.4649718">
        <ele>298</ele>
        <time>2013-04-01T12:15:16Z</time>
      </trkpt>
      <trkpt lat="62.806061" lon="14.4652898">
        <ele>300.4</ele>
        <time>2013-04-01T12:15:23Z</time>
      </trkpt>
      <trkpt lat="62.8061645" lon="14.4656118">
        <ele>300.4</ele>
        <time>2013-04-01T12:15:32Z</time>
      </trkpt>
      <trkpt lat="62.806249" lon="14.4658223">
        <ele>299.8</ele>
        <time>2013-04-01T12:15:38Z</time>
      </trkpt>
      <trkpt lat="62.8063123" lon="14.4658325">
        <ele>299.6</ele>
        <time>2013-04-01T12:15:40Z</time>
      </trkpt>
      <trkpt lat="62.8063324" lon="14.4658202">
        <ele>299.6</ele>
        <time>2013-04-01T12:15:41Z</time>
      </trkpt>
      <trkpt lat="62.8064801" lon="14.4657161">
        <ele>298.4</ele>
        <time>2013-04-01T12:15:49Z</time>
      </trkpt>
      <trkpt lat="62.8066516" lon="14.4655659">
        <ele>297.6</ele>
        <time>2013-04-01T12:15:54Z</time>
      </trkpt>
      <trkpt lat="62.8068177" lon="14.465386">
        <ele>296.8</ele>
        <time>2013-04-01T12:15:59Z</time>
      </trkpt>
      <trkpt lat="62.8070018" lon="14.4651788">
        <ele>296.4</ele>
        <time>2013-04-01T12:16:06Z</time>
      </trkpt>
      <trkpt lat="62.8071862" lon="14.4649521">
        <ele>295.8</ele>
        <time>2013-04-01T12:16:12Z</time>
      </trkpt>
      <trkpt lat="62.8073473" lon="14.4647806">
        <ele>295.8</ele>
        <time>2013-04-01T12:16:17Z</time>
      </trkpt>
      <trkpt lat="62.8075183" lon="14.4645755">
        <ele>296.2</ele>
        <time>2013-04-01T12:16:22Z</time>
      </trkpt>
      <trkpt lat="62.8076889" lon="14.4643719">
        <ele>295.2</ele>
        <time>2013-04-01T12:16:26Z</time>
      </trkpt>
      <trkpt lat="62.80787" lon="14.4641629">
        <ele>295.6</ele>
        <time>2013-04-01T12:16:32Z</time>
      </trkpt>
      <trkpt lat="62.8080376" lon="14.4639274">
        <ele>296.6</ele>
        <time>2013-04-01T12:16:39Z</time>
      </trkpt>
      <trkpt lat="62.8081937" lon="14.4637337">
        <ele>296.8</ele>
        <time>2013-04-01T12:16:43Z</time>
      </trkpt>
      <trkpt lat="62.8083672" lon="14.4635139">
        <ele>297</ele>
        <time>2013-04-01T12:16:49Z</time>
      </trkpt>
      <trkpt lat="62.8085064" lon="14.4633053">
        <ele>297</ele>
        <time>2013-04-01T12:16:52Z</time>
      </trkpt>
      <trkpt lat="62.8085419" lon="14.4632463">
        <ele>297.2</ele>
        <time>2013-04-01T12:16:53Z</time>
      </trkpt>
      <trkpt lat="62.8087349" lon="14.4630381">
        <ele>296</ele>
        <time>2013-04-01T12:17:00Z</time>
      </trkpt>
      <trkpt lat="62.8089174" lon="14.4628223">
        <ele>296.8</ele>
        <time>2013-04-01T12:17:06Z</time>
      </trkpt>
      <trkpt lat="62.8090687" lon="14.4625825">
        <ele>296.6</ele>
        <time>2013-04-01T12:17:10Z</time>
      </trkpt>
      <trkpt lat="62.8092131" lon="14.4623464">
        <ele>296.2</ele>
        <time>2013-04-01T12:17:15Z</time>
      </trkpt>
      <trkpt lat="62.8093721" lon="14.4620935">
        <ele>296.4</ele>
        <time>2013-04-01T12:17:21Z</time>
      </trkpt>
      <trkpt lat="62.8095424" lon="14.4618465">
        <ele>295.8</ele>
        <time>2013-04-01T12:17:25Z</time>
      </trkpt>
      <trkpt lat="62.8097068" lon="14.4616372">
        <ele>296.4</ele>
        <time>2013-04-01T12:17:30Z</time>
      </trkpt>
      <trkpt lat="62.8098669" lon="14.4613825">
        <ele>297.4</ele>
        <time>2013-04-01T12:17:37Z</time>
      </trkpt>
      <trkpt lat="62.8099731" lon="14.4610614">
        <ele>298.8</ele>
        <time>2013-04-01T12:17:42Z</time>
      </trkpt>
      <trkpt lat="62.8100528" lon="14.460661">
        <ele>300</ele>
        <time>2013-04-01T12:17:48Z</time>
      </trkpt>
      <trkpt lat="62.8101055" lon="14.460247">
        <ele>300.2</ele>
        <time>2013-04-01T12:17:55Z</time>
      </trkpt>
      <trkpt lat="62.8101285" lon="14.4598179">
        <ele>300</ele>
        <time>2013-04-01T12:18:02Z</time>
      </trkpt>
      <trkpt lat="62.8101616" lon="14.4594014">
        <ele>299.6</ele>
        <time>2013-04-01T12:18:08Z</time>
      </trkpt>
      <trkpt lat="62.810082" lon="14.4590012">
        <ele>297.8</ele>
        <time>2013-04-01T12:18:14Z</time>
      </trkpt>
      <trkpt lat="62.8100704" lon="14.4589504">
        <ele>297.8</ele>
        <time>2013-04-01T12:18:16Z</time>
      </trkpt>
      <trkpt lat="62.8100547" lon="14.4587858">
        <ele>297.2</ele>
        <time>2013-04-01T12:18:20Z</time>
      </trkpt>
      <trkpt lat="62.8100355" lon="14.4585886">
        <ele>297</ele>
        <time>2013-04-01T12:18:24Z</time>
      </trkpt>
      <trkpt lat="62.8098866" lon="14.4583293">
        <ele>296.2</ele>
        <time>2013-04-01T12:18:33Z</time>
      </trkpt>
      <trkpt lat="62.8098135" lon="14.4583016">
        <ele>296</ele>
        <time>2013-04-01T12:18:36Z</time>
      </trkpt>
      <trkpt lat="62.8097367" lon="14.4581615">
        <ele>295.8</ele>
        <time>2013-04-01T12:18:41Z</time>
      </trkpt>
      <trkpt lat="62.8097425" lon="14.4578728">
        <ele>295.8</ele>
        <time>2013-04-01T12:18:49Z</time>
      </trkpt>
      <trkpt lat="62.8097372" lon="14.4578398">
        <ele>295.6</ele>
        <time>2013-04-01T12:18:50Z</time>
      </trkpt>
      <trkpt lat="62.8097172" lon="14.4577678">
        <ele>295</ele>
        <time>2013-04-01T12:18:52Z</time>
      </trkpt>
      <trkpt lat="62.8096424" lon="14.4573568">
        <ele>293</ele>
        <time>2013-04-01T12:19:00Z</time>
      </trkpt>
      <trkpt lat="62.8095391" lon="14.4569954">
        <ele>292</ele>
        <time>2013-04-01T12:19:06Z</time>
      </trkpt>
      <trkpt lat="62.8094875" lon="14.4565866">
        <ele>293.2</ele>
        <time>2013-04-01T12:19:11Z</time>
      </trkpt>
      <trkpt lat="62.8094415" lon="14.4562009">
        <ele>291.8</ele>
        <time>2013-04-01T12:19:15Z</time>
      </trkpt>
      <trkpt lat="62.8093815" lon="14.4558159">
        <ele>292.2</ele>
        <time>2013-04-01T12:19:19Z</time>
      </trkpt>
      <trkpt lat="62.8093526" lon="14.4556306">
        <ele>291.6</ele>
        <time>2013-04-01T12:19:21Z</time>
      </trkpt>
      <trkpt lat="62.8093266" lon="14.4554383">
        <ele>291.4</ele>
        <time>2013-04-01T12:19:23Z</time>
      </trkpt>
      <trkpt lat="62.8093167" lon="14.4552611">
        <ele>291.2</ele>
        <time>2013-04-01T12:19:25Z</time>
      </trkpt>
      <trkpt lat="62.8093181" lon="14.4550073">
        <ele>291.2</ele>
        <time>2013-04-01T12:19:28Z</time>
      </trkpt>
      <trkpt lat="62.8093121" lon="14.4549206">
        <ele>291.4</ele>
        <time>2013-04-01T12:19:29Z</time>
      </trkpt>
      <trkpt lat="62.8092675" lon="14.4545397">
        <ele>290.4</ele>
        <time>2013-04-01T12:19:33Z</time>
      </trkpt>
      <trkpt lat="62.8092276" lon="14.4542215">
        <ele>290</ele>
        <time>2013-04-01T12:19:36Z</time>
      </trkpt>
      <trkpt lat="62.8092137" lon="14.454108">
        <ele>289.8</ele>
        <time>2013-04-01T12:19:37Z</time>
      </trkpt>
      <trkpt lat="62.8091878" lon="14.4538977">
        <ele>288.2</ele>
        <time>2013-04-01T12:19:39Z</time>
      </trkpt>
      <trkpt lat="62.8091619" lon="14.4536978">
        <ele>287.4</ele>
        <time>2013-04-01T12:19:41Z</time>
      </trkpt>
      <trkpt lat="62.8091177" lon="14.4533317">
        <ele>286.2</ele>
        <time>2013-04-01T12:19:45Z</time>
      </trkpt>
      <trkpt lat="62.8091052" lon="14.4532434">
        <ele>286</ele>
        <time>2013-04-01T12:19:46Z</time>
      </trkpt>
      <trkpt lat="62.8090694" lon="14.4529732">
        <ele>286.2</ele>
        <time>2013-04-01T12:19:49Z</time>
      </trkpt>
      <trkpt lat="62.8090463" lon="14.4528033">
        <ele>286.6</ele>
        <time>2013-04-01T12:19:51Z</time>
      </trkpt>
      <trkpt lat="62.8090028" lon="14.4524789">
        <ele>287.6</ele>
        <time>2013-04-01T12:19:56Z</time>
      </trkpt>
      <trkpt lat="62.8089902" lon="14.4523944">
        <ele>287.6</ele>
        <time>2013-04-01T12:19:57Z</time>
      </trkpt>
      <trkpt lat="62.8089475" lon="14.4519695">
        <ele>289</ele>
        <time>2013-04-01T12:20:01Z</time>
      </trkpt>
      <trkpt lat="62.8089127" lon="14.451553">
        <ele>290</ele>
        <time>2013-04-01T12:20:06Z</time>
      </trkpt>
      <trkpt lat="62.8088939" lon="14.4510997">
        <ele>290</ele>
        <time>2013-04-01T12:20:11Z</time>
      </trkpt>
      <trkpt lat="62.8088867" lon="14.4508403">
        <ele>289</ele>
        <time>2013-04-01T12:20:14Z</time>
      </trkpt>
      <trkpt lat="62.8088889" lon="14.4506613">
        <ele>288.8</ele>
        <time>2013-04-01T12:20:16Z</time>
      </trkpt>
      <trkpt lat="62.8088878" lon="14.4505721">
        <ele>289</ele>
        <time>2013-04-01T12:20:17Z</time>
      </trkpt>
      <trkpt lat="62.8088935" lon="14.4502008">
        <ele>288.6</ele>
        <time>2013-04-01T12:20:21Z</time>
      </trkpt>
      <trkpt lat="62.8089011" lon="14.4497353">
        <ele>289</ele>
        <time>2013-04-01T12:20:26Z</time>
      </trkpt>
      <trkpt lat="62.8089206" lon="14.4493055">
        <ele>289.8</ele>
        <time>2013-04-01T12:20:31Z</time>
      </trkpt>
      <trkpt lat="62.8089215" lon="14.4489697">
        <ele>290.4</ele>
        <time>2013-04-01T12:20:35Z</time>
      </trkpt>
      <trkpt lat="62.8089182" lon="14.4488812">
        <ele>290.4</ele>
        <time>2013-04-01T12:20:36Z</time>
      </trkpt>
      <trkpt lat="62.8088956" lon="14.4484254">
        <ele>290.4</ele>
        <time>2013-04-01T12:20:41Z</time>
      </trkpt>
      <trkpt lat="62.8088852" lon="14.4483327">
        <ele>290.2</ele>
        <time>2013-04-01T12:20:42Z</time>
      </trkpt>
      <trkpt lat="62.8088664" lon="14.4481595">
        <ele>290.2</ele>
        <time>2013-04-01T12:20:44Z</time>
      </trkpt>
      <trkpt lat="62.8088498" lon="14.4479762">
        <ele>290.2</ele>
        <time>2013-04-01T12:20:46Z</time>
      </trkpt>
      <trkpt lat="62.8088096" lon="14.4476252">
        <ele>289.2</ele>
        <time>2013-04-01T12:20:50Z</time>
      </trkpt>
      <trkpt lat="62.8087976" lon="14.4475375">
        <ele>288.8</ele>
        <time>2013-04-01T12:20:51Z</time>
      </trkpt>
      <trkpt lat="62.8087594" lon="14.4470999">
        <ele>288.4</ele>
        <time>2013-04-01T12:20:56Z</time>
      </trkpt>
      <trkpt lat="62.8087272" lon="14.4466543">
        <ele>289.2</ele>
        <time>2013-04-01T12:21:01Z</time>
      </trkpt>
      <trkpt lat="62.8087193" lon="14.4465612">
        <ele>289.6</ele>
        <time>2013-04-01T12:21:02Z</time>
      </trkpt>
      <trkpt lat="62.8086994" lon="14.4463089">
        <ele>290.2</ele>
        <time>2013-04-01T12:21:05Z</time>
      </trkpt>
      <trkpt lat="62.8086976" lon="14.4462296">
        <ele>290.6</ele>
        <time>2013-04-01T12:21:06Z</time>
      </trkpt>
      <trkpt lat="62.8086512" lon="14.4458364">
        <ele>291.6</ele>
        <time>2013-04-01T12:21:11Z</time>
      </trkpt>
      <trkpt lat="62.8086049" lon="14.4454437">
        <ele>292.8</ele>
        <time>2013-04-01T12:21:16Z</time>
      </trkpt>
      <trkpt lat="62.8085561" lon="14.4450561">
        <ele>293.4</ele>
        <time>2013-04-01T12:21:21Z</time>
      </trkpt>
      <trkpt lat="62.8085378" lon="14.4446003">
        <ele>294.2</ele>
        <time>2013-04-01T12:21:27Z</time>
      </trkpt>
      <trkpt lat="62.808506" lon="14.4442069">
        <ele>294.4</ele>
        <time>2013-04-01T12:21:32Z</time>
      </trkpt>
      <trkpt lat="62.8084677" lon="14.4437499">
        <ele>294.6</ele>
        <time>2013-04-01T12:21:38Z</time>
      </trkpt>
      <trkpt lat="62.8083528" lon="14.4434246">
        <ele>295.8</ele>
        <time>2013-04-01T12:21:43Z</time>
      </trkpt>
      <trkpt lat="62.8082414" lon="14.443234">
        <ele>295.8</ele>
        <time>2013-04-01T12:21:47Z</time>
      </trkpt>
      <trkpt lat="62.8081828" lon="14.4431708">
        <ele>295.8</ele>
        <time>2013-04-01T12:21:49Z</time>
      </trkpt>
      <trkpt lat="62.8080325" lon="14.4428812">
        <ele>296</ele>
        <time>2013-04-01T12:21:55Z</time>
      </trkpt>
      <trkpt lat="62.8079884" lon="14.4424946">
        <ele>295.4</ele>
        <time>2013-04-01T12:22:01Z</time>
      </trkpt>
      <trkpt lat="62.8080723" lon="14.4420719">
        <ele>294</ele>
        <time>2013-04-01T12:22:07Z</time>
      </trkpt>
      <trkpt lat="62.8081564" lon="14.4416463">
        <ele>293.8</ele>
        <time>2013-04-01T12:22:13Z</time>
      </trkpt>
      <trkpt lat="62.8082319" lon="14.4413722">
        <ele>292.2</ele>
        <time>2013-04-01T12:22:18Z</time>
      </trkpt>
      <trkpt lat="62.8082847" lon="14.4413101">
        <ele>292</ele>
        <time>2013-04-01T12:22:20Z</time>
      </trkpt>
      <trkpt lat="62.8084075" lon="14.4413012">
        <ele>291</ele>
        <time>2013-04-01T12:22:24Z</time>
      </trkpt>
      <trkpt lat="62.8084758" lon="14.4413">
        <ele>290.2</ele>
        <time>2013-04-01T12:22:26Z</time>
      </trkpt>
      <trkpt lat="62.8086576" lon="14.4413042">
        <ele>289.4</ele>
        <time>2013-04-01T12:22:31Z</time>
      </trkpt>
    </trkseg>
  </trk>
</gpx>